Observation data for Palo Duro Canyon State Park Floor on 11/17/2019      Previous  Date       Current Mesonet Observations  Soil Data  Daily Summary Page  Observations in Plain Language
KPD2 170600Z 34002KT 09/02 A2998 RMK A01 T00920015  RH  059%=      5-min Rain = 0
KPD2 170601Z 35002KT 09/02 A2998 RMK A01 T00920015  RH  058%=      5-min Rain = 0
KPD2 170602Z 35002KT 09/02 A2998 RMK A01 T00920015  RH  058%=      5-min Rain = 0
KPD2 170603Z 36003KT 09/02 A2998 RMK A01 T00920015  RH  058%=      5-min Rain = 0
KPD2 170604Z 35003KT 09/02 A2998 RMK A01 T00920015  RH  058%=      5-min Rain = 0
KPD2 170605Z 35003KT 09/02 A2998 RMK A01 T00920015  RH  058%=      5-min Rain = 0
KPD2 170606Z 35004KT 09/02 A2998 RMK A01 T00920015  RH  058%=      5-min Rain = 0
KPD2 170607Z 35003KT 09/02 A2998 RMK A01 T00920015  RH  058%=      5-min Rain = 0
KPD2 170608Z 35003KT 09/02 A2998 RMK A01 T00920015  RH  058%=      5-min Rain = 0
KPD2 170609Z 35003KT 09/02 A2998 RMK A01 T00920015  RH  058%=      5-min Rain = 0
KPD2 170610Z 36002KT 09/02 A2998 RMK A01 T00920015  RH  058%=      5-min Rain = 0
KPD2 170611Z 35001KT 09/02 A2998 RMK A01 T00920015  RH  059%=      5-min Rain = 0
KPD2 170612Z 35001KT 09/01 A2998 RMK A01 T00910014  RH  059%=      5-min Rain = 0
KPD2 170613Z 34001KT 09/02 A2998 RMK A01 T00910015  RH  059%=      5-min Rain = 0
KPD2 170614Z 28002KT 09/02 A2998 RMK A01 T00910015  RH  059%=      5-min Rain = 0
KPD2 170615Z 24002KT 09/01 A2998 RMK A01 T00910014  RH  059%=      5-min Rain = 0
KPD2 170616Z 25002KT 09/01 A2998 RMK A01 T00900014  RH  059%=      5-min Rain = 0
KPD2 170617Z 25002KT 09/01 A2998 RMK A01 T00900014  RH  059%=      5-min Rain = 0
KPD2 170618Z 25002KT 09/01 A2998 RMK A01 T00890014  RH  059%=      5-min Rain = 0
KPD2 170619Z 25001KT 09/01 A2998 RMK A01 T00880014  RH  060%=      5-min Rain = 0
KPD2 170620Z 25001KT 09/01 A2998 RMK A01 T00870013  RH  060%=      5-min Rain = 0
KPD2 170621Z 26000KT 09/01 A2998 RMK A01 T00870014  RH  060%=      5-min Rain = 0
KPD2 170622Z 27000KT 09/01 A2998 RMK A01 T00860014  RH  060%=      5-min Rain = 0
KPD2 170623Z 00000KT 09/01 A2998 RMK A01 T00860014  RH  061%=      5-min Rain = 0
KPD2 170624Z 00000KT 09/01 A2998 RMK A01 T00850014  RH  061%=      5-min Rain = 0
KPD2 170625Z 00000KT 09/01 A2998 RMK A01 T00850014  RH  061%=      5-min Rain = 0
KPD2 170626Z 00000KT 09/01 A2998 RMK A01 T00850014  RH  061%=      5-min Rain = 0
KPD2 170627Z 00000KT 08/01 A2998 RMK A01 T00840014  RH  061%=      5-min Rain = 0
KPD2 170628Z 27001KT 08/01 A2998 RMK A01 T00840014  RH  061%=      5-min Rain = 0
KPD2 170629Z 27001KT 08/01 A2998 RMK A01 T00840013  RH  061%=      5-min Rain = 0
KPD2 170630Z 27001KT 08/01 A2998 RMK A01 T00830013  RH  062%=      5-min Rain = 0
KPD2 170631Z 29003KT 08/01 A2998 RMK A01 T00830013  RH  062%=      5-min Rain = 0
KPD2 170632Z 29003KT 08/01 A2998 RMK A01 T00830014  RH  062%=      5-min Rain = 0
KPD2 170633Z 29002KT 08/01 A2998 RMK A01 T00830014  RH  062%=      5-min Rain = 0
KPD2 170634Z 29002KT 08/01 A2998 RMK A01 T00830014  RH  062%=      5-min Rain = 0
KPD2 170635Z 29004KT 08/01 A2998 RMK A01 T00820013  RH  062%=      5-min Rain = 0
KPD2 170636Z 30004KT 08/01 A2998 RMK A01 T00820014  RH  062%=      5-min Rain = 0
KPD2 170637Z 30004KT 08/01 A2998 RMK A01 T00820014  RH  062%=      5-min Rain = 0
KPD2 170638Z 30005KT 08/01 A2998 RMK A01 T00820014  RH  062%=      5-min Rain = 0
KPD2 170639Z 30004KT 08/02 A2998 RMK A01 T00820015  RH  063%=      5-min Rain = 0
KPD2 170640Z 28003KT 08/02 A2998 RMK A01 T00820016  RH  063%=      5-min Rain = 0
KPD2 170641Z 29004KT 08/02 A2998 RMK A01 T00820015  RH  063%=      5-min Rain = 0
KPD2 170642Z 28002KT 08/02 A2998 RMK A01 T00820016  RH  063%=      5-min Rain = 0
KPD2 170643Z 29002KT 08/02 A2998 RMK A01 T00820015  RH  063%=      5-min Rain = 0
KPD2 170644Z 31001KT 08/02 A2998 RMK A01 T00820016  RH  063%=      5-min Rain = 0
KPD2 170645Z 28003KT 08/02 A2998 RMK A01 T00820015  RH  063%=      5-min Rain = 0
KPD2 170646Z 29004KT 08/02 A2998 RMK A01 T00820015  RH  063%=      5-min Rain = 0
KPD2 170647Z 30004KT 08/02 A2998 RMK A01 T00820016  RH  063%=      5-min Rain = 0
KPD2 170648Z 30003KT 08/02 A2998 RMK A01 T00840017  RH  063%=      5-min Rain = 0
KPD2 170649Z 32003KT 09/02 A2998 RMK A01 T00850016  RH  062%=      5-min Rain = 0
KPD2 170650Z 31004KT 08/02 A2998 RMK A01 T00840016  RH  062%=      5-min Rain = 0
KPD2 170651Z 32004KT 08/02 A2998 RMK A01 T00840015  RH  062%=      5-min Rain = 0
KPD2 170652Z 30004KT 08/02 A2998 RMK A01 T00840016  RH  062%=      5-min Rain = 0
KPD2 170653Z 30007KT 09/02 A2999 RMK A01 T00850017  RH  062%=      5-min Rain = 0
KPD2 170654Z 30008KT 09/02 A2999 RMK A01 T00860018  RH  062%=      5-min Rain = 0
KPD2 170655Z 31008KT 09/02 A2999 RMK A01 T00880018  RH  062%=      5-min Rain = 0
KPD2 170656Z 30006KT 09/02 A2998 RMK A01 T00890018  RH  061%=      5-min Rain = 0
KPD2 170657Z 30006KT 09/02 A2998 RMK A01 T00900018  RH  061%=      5-min Rain = 0
KPD2 170658Z 30005KT 09/02 A2999 RMK A01 T00910018  RH  060%=      5-min Rain = 0
KPD2 170659Z 30006KT 09/02 A2999 RMK A01 T00910018  RH  060%=      5-min Rain = 0
KPD2 170700Z 31006KT 09/02 A2999 RMK A01 T00910018  RH  060%=      5-min Rain = 0
KPD2 170701Z 30005KT 09/02 A2999 RMK A01 T00910017  RH  060%=      5-min Rain = 0
KPD2 170702Z 30005KT 09/02 A2999 RMK A01 T00910018  RH  060%=      5-min Rain = 0
KPD2 170703Z 30005KT 09/02 A2999 RMK A01 T00900017  RH  060%=      5-min Rain = 0
KPD2 170704Z 29007KT 09/02 A2999 RMK A01 T00910018  RH  060%=      5-min Rain = 0
KPD2 170705Z 30006KT 09/02 A2999 RMK A01 T00910018  RH  060%=      5-min Rain = 0
KPD2 170706Z 30006KT 09/02 A2999 RMK A01 T00920018  RH  060%=      5-min Rain = 0
KPD2 170707Z 30007KT 09/02 A2999 RMK A01 T00930018  RH  060%=      5-min Rain = 0
KPD2 170708Z 30006KT 09/02 A2999 RMK A01 T00940018  RH  059%=      5-min Rain = 0
KPD2 170709Z 30006KT 10/02 A2999 RMK A01 T00950018  RH  059%=      5-min Rain = 0
KPD2 170710Z 30006KT 10/02 A30 RMK A01 T00960018  RH  058%=      5-min Rain = 0
KPD2 170711Z 29007KT 10/02 A30 RMK A01 T00960018  RH  058%=      5-min Rain = 0
KPD2 170712Z 30006KT 10/02 A30 RMK A01 T00960017  RH  058%=      5-min Rain = 0
KPD2 170713Z 30007KT 10/02 A30 RMK A01 T00970017  RH  058%=      5-min Rain = 0
KPD2 170714Z 30006KT 10/02 A30 RMK A01 T00980017  RH  057%=      5-min Rain = 0
KPD2 170715Z 30008KT 10/02 A30 RMK A01 T00990017  RH  056%=      5-min Rain = 0
KPD2 170716Z 30007KT 10/02 A30 RMK A01 T01010016  RH  056%=      5-min Rain = 0
KPD2 170717Z 31006KT 10/02 A30 RMK A01 T01020016  RH  055%=      5-min Rain = 0
KPD2 170718Z 30009KT 10/02 A30 RMK A01 T01020016  RH  055%=      5-min Rain = 0
KPD2 170719Z 30007KT 10/02 A30 RMK A01 T01030016  RH  055%=      5-min Rain = 0
KPD2 170720Z 32008KT 10/02 A30 RMK A01 T01030016  RH  054%=      5-min Rain = 0
KPD2 170721Z 30008KT 10/01 A30 RMK A01 T01030014  RH  054%=      5-min Rain = 0
KPD2 170722Z 30008KT 10/01 A30 RMK A01 T01040014  RH  054%=      5-min Rain = 0
KPD2 170723Z 30008KT 11/01 A30 RMK A01 T01050012  RH  053%=      5-min Rain = 0
KPD2 170724Z 30009G14KT 11/01 A30 RMK A01 T01060012  RH  052%=      5-min Rain = 0
KPD2 170725Z 32009KT 11/01 A30 RMK A01 T01080009  RH  051%=      5-min Rain = 0
KPD2 170726Z 30008KT 11/01 A30 RMK A01 T01090008  RH  049%=      5-min Rain = 0
KPD2 170727Z 30011G16KT 11/01 A3001 RMK A01 T01110005  RH  048%=      5-min Rain = 0
KPD2 170728Z 30010G15KT 11/00 A3001 RMK A01 T01140003  RH  046%=      5-min Rain = 0
KPD2 170729Z 30010G16KT 12/00 A3001 RMK A01 T01160002  RH  045%=      5-min Rain = 0
KPD2 170730Z 30010G15KT 12/00 A3001 RMK A01 T01170000  RH  045%=      5-min Rain = 0
KPD2 170731Z 32013G19KT 12/M00 A3001 RMK A01 T01181001  RH  044%=      5-min Rain = 0
KPD2 170732Z 31009KT 12/M00 A3002 RMK A01 T01191002  RH  043%=      5-min Rain = 0
KPD2 170733Z 31008KT 12/M00 A3002 RMK A01 T01191001  RH  043%=      5-min Rain = 0
KPD2 170734Z 30009KT 12/M00 A3002 RMK A01 T01191002  RH  043%=      5-min Rain = 0
KPD2 170735Z 31007KT 12/M00 A3002 RMK A01 T01191002  RH  043%=      5-min Rain = 0
KPD2 170736Z 29007KT 12/M00 A3002 RMK A01 T01191003  RH  043%=      5-min Rain = 0
KPD2 170737Z 30006KT 12/M00 A3002 RMK A01 T01191003  RH  043%=      5-min Rain = 0
KPD2 170738Z 29007G12KT 12/M00 A3002 RMK A01 T01181003  RH  043%=      5-min Rain = 0
KPD2 170739Z 30009KT 12/M00 A3002 RMK A01 T01171003  RH  043%=      5-min Rain = 0
KPD2 170740Z 30009KT 12/M00 A3002 RMK A01 T01171004  RH  043%=      5-min Rain = 0
KPD2 170741Z 30009G14KT 12/M00 A3002 RMK A01 T01171004  RH  043%=      5-min Rain = 0
KPD2 170742Z 30010G15KT 12/M01 A3002 RMK A01 T01171005  RH  043%=      5-min Rain = 0
KPD2 170743Z 29008KT 12/M01 A3002 RMK A01 T01171006  RH  043%=      5-min Rain = 0
KPD2 170744Z 30008KT 12/M01 A3002 RMK A01 T01171006  RH  043%=      5-min Rain = 0
KPD2 170745Z 29009KT 12/M01 A3002 RMK A01 T01171005  RH  043%=      5-min Rain = 0
KPD2 170746Z 30008KT 12/M01 A3002 RMK A01 T01171006  RH  043%=      5-min Rain = 0
KPD2 170747Z 30011KT 12/M01 A3002 RMK A01 T01161006  RH  043%=      5-min Rain = 0
KPD2 170748Z 32011KT 12/M01 A3002 RMK A01 T01161006  RH  043%=      5-min Rain = 0
KPD2 170749Z 30008KT 12/M01 A3002 RMK A01 T01171007  RH  042%=      5-min Rain = 0
KPD2 170750Z 29008KT 12/M01 A3002 RMK A01 T01171007  RH  042%=      5-min Rain = 0
KPD2 170751Z 29010KT 12/M01 A3002 RMK A01 T01161007  RH  043%=      5-min Rain = 0
KPD2 170752Z 30010KT 12/M01 A3002 RMK A01 T01161007  RH  043%=      5-min Rain = 0
KPD2 170753Z 30010KT 12/M01 A3002 RMK A01 T01161008  RH  042%=      5-min Rain = 0
KPD2 170754Z 30009KT 12/M01 A3003 RMK A01 T01171008  RH  042%=      5-min Rain = 0
KPD2 170755Z 30008KT 12/M01 A3003 RMK A01 T01171009  RH  042%=      5-min Rain = 0
KPD2 170756Z 31011KT 12/M01 A3003 RMK A01 T01171008  RH  042%=      5-min Rain = 0
KPD2 170757Z 30007G13KT 12/M01 A3003 RMK A01 T01161009  RH  042%=      5-min Rain = 0
KPD2 170758Z 30011KT 12/M01 A3003 RMK A01 T01161009  RH  042%=      5-min Rain = 0
KPD2 170759Z 30011KT 12/M01 A3003 RMK A01 T01161010  RH  042%=      5-min Rain = 0
KPD2 170800Z 30012KT 12/M01 A3003 RMK A01 T01161010  RH  041%=      5-min Rain = 0
KPD2 170801Z 30010KT 12/M01 A3003 RMK A01 T01171010  RH  041%=      5-min Rain = 0
KPD2 170802Z 31008KT 12/M01 A3003 RMK A01 T01171011  RH  041%=      5-min Rain = 0
KPD2 170803Z 30010KT 12/M01 A3003 RMK A01 T01161011  RH  041%=      5-min Rain = 0
KPD2 170804Z 30007KT 12/M01 A3003 RMK A01 T01161011  RH  041%=      5-min Rain = 0
KPD2 170805Z 30009KT 12/M01 A3003 RMK A01 T01151011  RH  042%=      5-min Rain = 0
KPD2 170806Z 31012G19KT 11/M01 A3003 RMK A01 T01141012  RH  042%=      5-min Rain = 0
KPD2 170807Z 33009G15KT 12/M01 A3003 RMK A01 T01151012  RH  041%=      5-min Rain = 0
KPD2 170808Z 34009KT 12/M01 A3003 RMK A01 T01161012  RH  041%=      5-min Rain = 0
KPD2 170809Z 32012G19KT 12/M01 A3003 RMK A01 T01151012  RH  041%=      5-min Rain = 0
KPD2 170810Z 31011KT 12/M01 A3003 RMK A01 T01151013  RH  041%=      5-min Rain = 0
KPD2 170811Z 31010KT 12/M01 A3003 RMK A01 T01161013  RH  041%=      5-min Rain = 0
KPD2 170812Z 32009G14KT 12/M01 A3004 RMK A01 T01151013  RH  041%=      5-min Rain = 0
KPD2 170813Z 31011G17KT 12/M01 A3004 RMK A01 T01151013  RH  041%=      5-min Rain = 0
KPD2 170814Z 31010G15KT 12/M01 A3004 RMK A01 T01151013  RH  041%=      5-min Rain = 0
KPD2 170815Z 32012G17KT 12/M01 A3004 RMK A01 T01151014  RH  041%=      5-min Rain = 0
KPD2 170816Z 31009KT 12/M01 A3004 RMK A01 T01151014  RH  041%=      5-min Rain = 0
KPD2 170817Z 30009KT 12/M01 A3004 RMK A01 T01151013  RH  041%=      5-min Rain = 0
KPD2 170818Z 30008KT 12/M01 A3004 RMK A01 T01151014  RH  041%=      5-min Rain = 0
KPD2 170819Z 31011KT 12/M01 A3004 RMK A01 T01151014  RH  041%=      5-min Rain = 0
KPD2 170820Z 30007KT 11/M01 A3004 RMK A01 T01141014  RH  041%=      5-min Rain = 0
KPD2 170821Z 32008KT 11/M01 A3004 RMK A01 T01141013  RH  041%=      5-min Rain = 0
KPD2 170822Z 31010KT 11/M01 A3004 RMK A01 T01131014  RH  041%=      5-min Rain = 0
KPD2 170823Z 31012KT 11/M01 A3004 RMK A01 T01131013  RH  041%=      5-min Rain = 0
KPD2 170824Z 30008KT 11/M01 A3004 RMK A01 T01131014  RH  041%=      5-min Rain = 0
KPD2 170825Z 30009KT 11/M01 A3005 RMK A01 T01141013  RH  041%=      5-min Rain = 0
KPD2 170826Z 31009G17KT 11/M01 A3005 RMK A01 T01131013  RH  041%=      5-min Rain = 0
KPD2 170827Z 30008KT 11/M01 A3005 RMK A01 T01121013  RH  042%=      5-min Rain = 0
KPD2 170828Z 31008KT 11/M01 A3005 RMK A01 T01121013  RH  042%=      5-min Rain = 0
KPD2 170829Z 31010KT 11/M01 A3005 RMK A01 T01121013  RH  042%=      5-min Rain = 0
KPD2 170830Z 31007KT 11/M01 A3005 RMK A01 T01111014  RH  042%=      5-min Rain = 0
KPD2 170831Z 33008KT 11/M01 A3005 RMK A01 T01121013  RH  042%=      5-min Rain = 0
KPD2 170832Z 32011KT 11/M01 A3005 RMK A01 T01111014  RH  042%=      5-min Rain = 0
KPD2 170833Z 32012KT 11/M01 A3005 RMK A01 T01111014  RH  042%=      5-min Rain = 0
KPD2 170834Z 33011G17KT 11/M01 A3005 RMK A01 T01111013  RH  042%=      5-min Rain = 0
KPD2 170835Z 32012KT 11/M01 A3005 RMK A01 T01111013  RH  042%=      5-min Rain = 0
KPD2 170836Z 32013G19KT 11/M01 A3005 RMK A01 T01111013  RH  042%=      5-min Rain = 0
KPD2 170837Z 32012G17KT 11/M01 A3005 RMK A01 T01121013  RH  042%=      5-min Rain = 0
KPD2 170838Z 30007KT 11/M01 A3005 RMK A01 T01121013  RH  042%=      5-min Rain = 0
KPD2 170839Z 31006KT 11/M01 A3006 RMK A01 T01121013  RH  042%=      5-min Rain = 0
KPD2 170840Z 31007G16KT 11/M01 A3006 RMK A01 T01111013  RH  042%=      5-min Rain = 0
KPD2 170841Z 31011G17KT 11/M01 A3006 RMK A01 T01101013  RH  042%=      5-min Rain = 0
KPD2 170842Z 30013KT 11/M01 A3006 RMK A01 T01101013  RH  042%=      5-min Rain = 0
KPD2 170843Z 32011G16KT 11/M01 A3006 RMK A01 T01101013  RH  042%=      5-min Rain = 0
KPD2 170844Z 30012KT 11/M01 A3006 RMK A01 T01101012  RH  043%=      5-min Rain = 0
KPD2 170845Z 31010KT 11/M01 A3006 RMK A01 T01101012  RH  043%=      5-min Rain = 0
KPD2 170846Z 32011G16KT 11/M01 A3006 RMK A01 T01101012  RH  043%=      5-min Rain = 0
KPD2 170847Z 32011G18KT 11/M01 A3006 RMK A01 T01091012  RH  043%=      5-min Rain = 0
KPD2 170848Z 31011KT 11/M01 A3006 RMK A01 T01091011  RH  043%=      5-min Rain = 0
KPD2 170849Z 32011KT 11/M01 A3006 RMK A01 T01081011  RH  044%=      5-min Rain = 0
KPD2 170850Z 31013G19KT 11/M01 A3007 RMK A01 T01071010  RH  044%=      5-min Rain = 0
KPD2 170851Z 32013G19KT 11/M01 A3007 RMK A01 T01071010  RH  044%=      5-min Rain = 0
KPD2 170852Z 34016G21KT 11/M01 A3007 RMK A01 T01071009  RH  044%=      5-min Rain = 0
KPD2 170853Z 32013KT 11/M01 A3007 RMK A01 T01071009  RH  045%=      5-min Rain = 0
KPD2 170854Z 32010G15KT 11/M01 A3006 RMK A01 T01071008  RH  045%=      5-min Rain = 0
KPD2 170855Z 32009G14KT 11/M01 A3007 RMK A01 T01071009  RH  045%=      5-min Rain = 0
KPD2 170856Z 30013G19KT 11/M01 A3006 RMK A01 T01061008  RH  045%=      5-min Rain = 0
KPD2 170857Z 31009G14KT 11/M01 A3006 RMK A01 T01061008  RH  045%=      5-min Rain = 0
KPD2 170858Z 32011KT 11/M01 A3006 RMK A01 T01061008  RH  045%=      5-min Rain = 0
KPD2 170859Z 30012KT 11/M01 A3006 RMK A01 T01051008  RH  046%=      5-min Rain = 0
KPD2 170900Z 31011G16KT 10/M01 A3006 RMK A01 T01041008  RH  046%=      5-min Rain = 0
KPD2 170901Z 33011G21KT 10/M01 A3007 RMK A01 T01041007  RH  046%=      5-min Rain = 0
KPD2 170902Z 32014KT 10/M01 A3007 RMK A01 T01041007  RH  046%=      5-min Rain = 0
KPD2 170903Z 32008G15KT 10/M01 A3007 RMK A01 T01031007  RH  046%=      5-min Rain = 0
KPD2 170904Z 31008KT 10/M01 A3007 RMK A01 T01031007  RH  046%=      5-min Rain = 0
KPD2 170905Z 30008KT 10/M01 A3007 RMK A01 T01021007  RH  047%=      5-min Rain = 0
KPD2 170906Z 32011G16KT 10/M01 A3007 RMK A01 T01021007  RH  047%=      5-min Rain = 0
KPD2 170907Z 31010KT 10/M01 A3007 RMK A01 T01021006  RH  047%=      5-min Rain = 0
KPD2 170908Z 32012KT 10/M01 A3007 RMK A01 T01021006  RH  047%=      5-min Rain = 0
KPD2 170909Z 31011G17KT 10/M01 A3007 RMK A01 T01021006  RH  047%=      5-min Rain = 0
KPD2 170910Z 31013G18KT 10/M01 A3007 RMK A01 T01011005  RH  047%=      5-min Rain = 0
KPD2 170911Z 30011KT 10/M01 A3007 RMK A01 T01021005  RH  048%=      5-min Rain = 0
KPD2 170912Z 31013G19KT 10/M01 A3007 RMK A01 T01021005  RH  048%=      5-min Rain = 0
KPD2 170913Z 31010G16KT 10/M01 A3007 RMK A01 T01011005  RH  048%=      5-min Rain = 0
KPD2 170914Z 32011G16KT 10/M01 A3007 RMK A01 T01011005  RH  048%=      5-min Rain = 0
KPD2 170915Z 32011G18KT 10/M01 A3007 RMK A01 T01001005  RH  048%=      5-min Rain = 0
KPD2 170916Z 31009G15KT 10/M00 A3007 RMK A01 T01001004  RH  048%=      5-min Rain = 0
KPD2 170917Z 30011G16KT 10/M00 A3007 RMK A01 T01001004  RH  048%=      5-min Rain = 0
KPD2 170918Z 29010KT 10/M00 A3006 RMK A01 T01001004  RH  048%=      5-min Rain = 0
KPD2 170919Z 31010G16KT 10/M00 A3006 RMK A01 T01001004  RH  048%=      5-min Rain = 0
KPD2 170920Z 30006KT 10/M00 A3006 RMK A01 T00991004  RH  049%=      5-min Rain = 0
KPD2 170921Z 33008G13KT 10/M00 A3006 RMK A01 T00991004  RH  049%=      5-min Rain = 0
KPD2 170922Z 30009KT 10/M00 A3006 RMK A01 T00981004  RH  049%=      5-min Rain = 0
KPD2 170923Z 32008G14KT 10/M00 A3007 RMK A01 T00981004  RH  049%=      5-min Rain = 0
KPD2 170924Z 30010KT 10/M00 A3007 RMK A01 T00981004  RH  049%=      5-min Rain = 0
KPD2 170925Z 29007KT 10/M00 A3007 RMK A01 T00981003  RH  049%=      5-min Rain = 0
KPD2 170926Z 31006KT 10/M00 A3007 RMK A01 T00981003  RH  049%=      5-min Rain = 0
KPD2 170927Z 31009G14KT 10/M00 A3007 RMK A01 T00971004  RH  049%=      5-min Rain = 0
KPD2 170928Z 31009KT 10/M00 A3007 RMK A01 T00971003  RH  050%=      5-min Rain = 0
KPD2 170929Z 30008KT 10/M00 A3007 RMK A01 T00971003  RH  050%=      5-min Rain = 0
KPD2 170930Z 30009KT 10/M00 A3007 RMK A01 T00961003  RH  050%=      5-min Rain = 0
KPD2 170931Z 30009KT 10/M00 A3007 RMK A01 T00961003  RH  050%=      5-min Rain = 0
KPD2 170932Z 31008KT 10/M00 A3007 RMK A01 T00961003  RH  050%=      5-min Rain = 0
KPD2 170933Z 30007KT 10/M00 A3007 RMK A01 T00961003  RH  050%=      5-min Rain = 0
KPD2 170934Z 31008KT 10/M00 A3007 RMK A01 T00951003  RH  050%=      5-min Rain = 0
KPD2 170935Z 31008KT 09/M00 A3007 RMK A01 T00941003  RH  051%=      5-min Rain = 0
KPD2 170936Z 31006KT 09/M00 A3007 RMK A01 T00941003  RH  051%=      5-min Rain = 0
KPD2 170937Z 31008KT 09/M00 A3007 RMK A01 T00931003  RH  051%=      5-min Rain = 0
KPD2 170938Z 30009G15KT 09/M00 A3007 RMK A01 T00931003  RH  051%=      5-min Rain = 0
KPD2 170939Z 31010KT 09/M00 A3007 RMK A01 T00931002  RH  051%=      5-min Rain = 0
KPD2 170940Z 29010KT 09/M00 A3007 RMK A01 T00931002  RH  051%=      5-min Rain = 0
KPD2 170941Z 32009KT 09/M00 A3007 RMK A01 T00931002  RH  051%=      5-min Rain = 0
KPD2 170942Z 30012KT 09/M00 A3007 RMK A01 T00941002  RH  051%=      5-min Rain = 0
KPD2 170943Z 31012KT 09/M00 A3007 RMK A01 T00941001  RH  051%=      5-min Rain = 0
KPD2 170944Z 31009G14KT 09/M00 A3007 RMK A01 T00941002  RH  051%=      5-min Rain = 0
KPD2 170945Z 29010KT 09/M00 A3007 RMK A01 T00931002  RH  052%=      5-min Rain = 0
KPD2 170946Z 29009KT 09/M00 A3007 RMK A01 T00931001  RH  052%=      5-min Rain = 0
KPD2 170947Z 29008KT 09/M00 A3007 RMK A01 T00931001  RH  052%=      5-min Rain = 0
KPD2 170948Z 30010KT 09/M00 A3007 RMK A01 T00921001  RH  052%=      5-min Rain = 0
KPD2 170949Z 30007G12KT 09/M00 A3007 RMK A01 T00921001  RH  052%=      5-min Rain = 0
KPD2 170950Z 30006KT 09/M00 A3008 RMK A01 T00921001  RH  052%=      5-min Rain = 0
KPD2 170951Z 31009KT 09/M00 A3008 RMK A01 T00921001  RH  052%=      5-min Rain = 0
KPD2 170952Z 29008KT 09/M00 A3008 RMK A01 T00911001  RH  052%=      5-min Rain = 0
KPD2 170953Z 29009G16KT 09/M00 A3008 RMK A01 T00911001  RH  053%=      5-min Rain = 0
KPD2 170954Z 31009KT 09/00 A3008 RMK A01 T009100-0  RH  053%=      5-min Rain = 0
KPD2 170955Z 30008KT 09/00 A3008 RMK A01 T009100-0  RH  053%=      5-min Rain = 0
KPD2 170956Z 32011KT 09/00 A3008 RMK A01 T009100-0  RH  053%=      5-min Rain = 0
KPD2 170957Z 30008KT 09/00 A3008 RMK A01 T00910000  RH  053%=      5-min Rain = 0
KPD2 170958Z 30008KT 09/00 A3008 RMK A01 T009000-0  RH  053%=      5-min Rain = 0
KPD2 170959Z 31009G15KT 09/00 A3008 RMK A01 T008900-0  RH  053%=      5-min Rain = 0
KPD2 171000Z 29009KT 09/00 A3008 RMK A01 T00900000  RH  054%=      5-min Rain = 0
KPD2 171001Z 31009KT 09/00 A3008 RMK A01 T008900-0  RH  053%=      5-min Rain = 0
KPD2 171002Z 30008KT 09/00 A3008 RMK A01 T00900000  RH  054%=      5-min Rain = 0
KPD2 171003Z 31009KT 09/00 A3008 RMK A01 T00890000  RH  054%=      5-min Rain = 0
KPD2 171004Z 31009KT 09/00 A3008 RMK A01 T00880001  RH  054%=      5-min Rain = 0
KPD2 171005Z 30009KT 09/00 A3008 RMK A01 T00880000  RH  054%=      5-min Rain = 0
KPD2 171006Z 29007KT 09/00 A3008 RMK A01 T00880000  RH  054%=      5-min Rain = 0
KPD2 171007Z 30011KT 09/00 A3008 RMK A01 T00880001  RH  054%=      5-min Rain = 0
KPD2 171008Z 31010G16KT 09/00 A3008 RMK A01 T00880001  RH  054%=      5-min Rain = 0
KPD2 171009Z 30009KT 09/00 A3008 RMK A01 T00880001  RH  054%=      5-min Rain = 0
KPD2 171010Z 30010G15KT 09/00 A3008 RMK A01 T00890002  RH  054%=      5-min Rain = 0
KPD2 171011Z 29008KT 09/00 A3008 RMK A01 T00890002  RH  054%=      5-min Rain = 0
KPD2 171012Z 30008KT 09/00 A3008 RMK A01 T00880002  RH  055%=      5-min Rain = 0
KPD2 171013Z 31010KT 09/00 A3008 RMK A01 T00880002  RH  055%=      5-min Rain = 0
KPD2 171014Z 30008KT 09/00 A3008 RMK A01 T00880002  RH  055%=      5-min Rain = 0
KPD2 171015Z 30008KT 09/00 A3008 RMK A01 T00870002  RH  055%=      5-min Rain = 0
KPD2 171016Z 29008G13KT 09/00 A3008 RMK A01 T00860002  RH  055%=      5-min Rain = 0
KPD2 171017Z 29008KT 09/00 A3008 RMK A01 T00870002  RH  055%=      5-min Rain = 0
KPD2 171018Z 29009KT 09/00 A3008 RMK A01 T00860002  RH  056%=      5-min Rain = 0
KPD2 171019Z 31013G19KT 09/00 A3008 RMK A01 T00860003  RH  056%=      5-min Rain = 0
KPD2 171020Z 33008KT 09/00 A3008 RMK A01 T00870003  RH  056%=      5-min Rain = 0
KPD2 171021Z 30008KT 09/00 A3008 RMK A01 T00870003  RH  056%=      5-min Rain = 0
KPD2 171022Z 30009KT 09/00 A3008 RMK A01 T00860003  RH  056%=      5-min Rain = 0
KPD2 171023Z 31008KT 09/00 A3008 RMK A01 T00860002  RH  056%=      5-min Rain = 0
KPD2 171024Z 31008KT 09/00 A3008 RMK A01 T00860003  RH  056%=      5-min Rain = 0
KPD2 171025Z 31009G14KT 09/00 A3008 RMK A01 T00850003  RH  056%=      5-min Rain = 0
KPD2 171026Z 28009KT 09/00 A3008 RMK A01 T00850003  RH  056%=      5-min Rain = 0
KPD2 171027Z 30009KT 09/00 A3008 RMK A01 T00850003  RH  056%=      5-min Rain = 0
KPD2 171028Z 31011G18KT 09/00 A3008 RMK A01 T00850003  RH  057%=      5-min Rain = 0
KPD2 171029Z 32010G16KT 09/00 A3009 RMK A01 T00850004  RH  057%=      5-min Rain = 0
KPD2 171030Z 30006KT 09/00 A3009 RMK A01 T00850004  RH  057%=      5-min Rain = 0
KPD2 171031Z 30007KT 09/00 A3009 RMK A01 T00850003  RH  057%=      5-min Rain = 0
KPD2 171032Z 29012KT 09/00 A3009 RMK A01 T00850004  RH  057%=      5-min Rain = 0
KPD2 171033Z 30012KT 08/00 A3009 RMK A01 T00840004  RH  057%=      5-min Rain = 0
KPD2 171034Z 30009G14KT 09/00 A3009 RMK A01 T00850004  RH  057%=      5-min Rain = 0
KPD2 171035Z 30011KT 09/00 A3009 RMK A01 T00850004  RH  057%=      5-min Rain = 0
KPD2 171036Z 31013G20KT 09/01 A3009 RMK A01 T00850005  RH  057%=      5-min Rain = 0
KPD2 171037Z 30011KT 09/01 A3009 RMK A01 T00850005  RH  057%=      5-min Rain = 0
KPD2 171038Z 30010G16KT 09/01 A3009 RMK A01 T00850005  RH  057%=      5-min Rain = 0
KPD2 171039Z 30008G13KT 09/01 A3009 RMK A01 T00850005  RH  057%=      5-min Rain = 0
KPD2 171040Z 32014KT 09/01 A3009 RMK A01 T00850005  RH  057%=      5-min Rain = 0
KPD2 171041Z 30009KT 08/01 A3009 RMK A01 T00840005  RH  057%=      5-min Rain = 0
KPD2 171042Z 32012KT 09/01 A3009 RMK A01 T00850005  RH  057%=      5-min Rain = 0
KPD2 171043Z 31010G18KT 09/01 A3009 RMK A01 T00850005  RH  057%=      5-min Rain = 0
KPD2 171044Z 30009KT 08/01 A3009 RMK A01 T00840005  RH  057%=      5-min Rain = 0
KPD2 171045Z 31009KT 08/01 A3009 RMK A01 T00840005  RH  057%=      5-min Rain = 0
KPD2 171046Z 30008KT 08/01 A301 RMK A01 T00840006  RH  058%=      5-min Rain = 0
KPD2 171047Z 31008KT 08/01 A301 RMK A01 T00830005  RH  058%=      5-min Rain = 0
KPD2 171048Z 32011KT 08/01 A301 RMK A01 T00820005  RH  058%=      5-min Rain = 0
KPD2 171049Z 33008KT 08/01 A301 RMK A01 T00820006  RH  058%=      5-min Rain = 0
KPD2 171050Z 29010G15KT 08/01 A301 RMK A01 T00820006  RH  058%=      5-min Rain = 0
KPD2 171051Z 30013G20KT 08/01 A301 RMK A01 T00820006  RH  058%=      5-min Rain = 0
KPD2 171052Z 30010G18KT 08/01 A301 RMK A01 T00820006  RH  059%=      5-min Rain = 0
KPD2 171053Z 30008KT 08/01 A301 RMK A01 T00830006  RH  059%=      5-min Rain = 0
KPD2 171054Z 31009KT 08/01 A301 RMK A01 T00830006  RH  058%=      5-min Rain = 0
KPD2 171055Z 30010G16KT 08/01 A301 RMK A01 T00830006  RH  059%=      5-min Rain = 0
KPD2 171056Z 31010KT 08/01 A301 RMK A01 T00820006  RH  059%=      5-min Rain = 0
KPD2 171057Z 32013KT 08/01 A301 RMK A01 T00820006  RH  059%=      5-min Rain = 0
KPD2 171058Z 32014KT 08/01 A301 RMK A01 T00820007  RH  059%=      5-min Rain = 0
KPD2 171059Z 31013G19KT 08/01 A301 RMK A01 T00810007  RH  059%=      5-min Rain = 0
KPD2 171100Z 30010KT 08/01 A301 RMK A01 T00820007  RH  059%=      5-min Rain = 0
KPD2 171101Z 31011G18KT 08/01 A301 RMK A01 T00820007  RH  059%=      5-min Rain = 0
KPD2 171102Z 31010KT 08/01 A301 RMK A01 T00820007  RH  059%=      5-min Rain = 0
KPD2 171103Z 32012KT 08/01 A3011 RMK A01 T00820007  RH  059%=      5-min Rain = 0
KPD2 171104Z 31009G15KT 08/01 A3011 RMK A01 T00820007  RH  059%=      5-min Rain = 0
KPD2 171105Z 31012G18KT 08/01 A3011 RMK A01 T00820007  RH  059%=      5-min Rain = 0
KPD2 171106Z 32009KT 08/01 A3011 RMK A01 T00820007  RH  059%=      5-min Rain = 0
KPD2 171107Z 31008G13KT 08/01 A3011 RMK A01 T00820008  RH  059%=      5-min Rain = 0
KPD2 171108Z 33011G20KT 08/01 A3011 RMK A01 T00820008  RH  060%=      5-min Rain = 0
KPD2 171109Z 31012G17KT 08/01 A3011 RMK A01 T00820008  RH  060%=      5-min Rain = 0
KPD2 171110Z 31012KT 08/01 A3011 RMK A01 T00820008  RH  060%=      5-min Rain = 0
KPD2 171111Z 31010G15KT 08/01 A3011 RMK A01 T00820008  RH  059%=      5-min Rain = 0
KPD2 171112Z 31012G18KT 08/01 A3011 RMK A01 T00820008  RH  060%=      5-min Rain = 0
KPD2 171113Z 30010KT 08/01 A3011 RMK A01 T00820008  RH  060%=      5-min Rain = 0
KPD2 171114Z 30010G15KT 08/01 A3011 RMK A01 T00820008  RH  060%=      5-min Rain = 0
KPD2 171115Z 30010KT 08/01 A3011 RMK A01 T00820008  RH  060%=      5-min Rain = 0
KPD2 171116Z 30009G15KT 08/01 A3011 RMK A01 T00820008  RH  060%=      5-min Rain = 0
KPD2 171117Z 32011KT 08/01 A3011 RMK A01 T00810008  RH  060%=      5-min Rain = 0
KPD2 171118Z 29011G17KT 08/01 A3011 RMK A01 T00810008  RH  060%=      5-min Rain = 0
KPD2 171119Z 30011G16KT 08/01 A3011 RMK A01 T00810008  RH  060%=      5-min Rain = 0
KPD2 171120Z 30010KT 08/01 A3011 RMK A01 T00800008  RH  060%=      5-min Rain = 0
KPD2 171121Z 30009KT 08/01 A3011 RMK A01 T00800008  RH  060%=      5-min Rain = 0
KPD2 171122Z 32014KT 08/01 A3012 RMK A01 T00790008  RH  061%=      5-min Rain = 0
KPD2 171123Z 30009G14KT 08/01 A3012 RMK A01 T00790008  RH  061%=      5-min Rain = 0
KPD2 171124Z 31012KT 08/01 A3012 RMK A01 T00790008  RH  061%=      5-min Rain = 0
KPD2 171125Z 30008KT 08/01 A3011 RMK A01 T00780008  RH  061%=      5-min Rain = 0
KPD2 171126Z 30009KT 08/01 A3012 RMK A01 T00780008  RH  061%=      5-min Rain = 0
KPD2 171127Z 31010KT 08/01 A3012 RMK A01 T00770007  RH  061%=      5-min Rain = 0
KPD2 171128Z 29007KT 08/01 A3012 RMK A01 T00770007  RH  061%=      5-min Rain = 0
KPD2 171129Z 32010KT 08/01 A3012 RMK A01 T00770008  RH  061%=      5-min Rain = 0
KPD2 171130Z 31010KT 08/01 A3012 RMK A01 T00770008  RH  061%=      5-min Rain = 0
KPD2 171131Z 29009KT 08/01 A3012 RMK A01 T00770008  RH  061%=      5-min Rain = 0
KPD2 171132Z 31008KT 08/01 A3012 RMK A01 T00770008  RH  061%=      5-min Rain = 0
KPD2 171133Z 31008KT 08/01 A3012 RMK A01 T00760007  RH  061%=      5-min Rain = 0
KPD2 171134Z 30008KT 08/01 A3012 RMK A01 T00760007  RH  062%=      5-min Rain = 0
KPD2 171135Z 32010KT 08/01 A3012 RMK A01 T00760008  RH  062%=      5-min Rain = 0
KPD2 171136Z 32012G17KT 08/01 A3012 RMK A01 T00760007  RH  062%=      5-min Rain = 0
KPD2 171137Z 30008G16KT 08/01 A3013 RMK A01 T00760007  RH  062%=      5-min Rain = 0
KPD2 171138Z 32012G17KT 08/01 A3013 RMK A01 T00760007  RH  062%=      5-min Rain = 0
KPD2 171139Z 31013G18KT 08/01 A3013 RMK A01 T00770007  RH  061%=      5-min Rain = 0
KPD2 171140Z 31009G14KT 08/01 A3013 RMK A01 T00770007  RH  061%=      5-min Rain = 0
KPD2 171141Z 31007KT 08/01 A3013 RMK A01 T00770007  RH  061%=      5-min Rain = 0
KPD2 171142Z 30009G14KT 08/01 A3013 RMK A01 T00770007  RH  061%=      5-min Rain = 0
KPD2 171143Z 31010G15KT 08/01 A3013 RMK A01 T00760007  RH  061%=      5-min Rain = 0
KPD2 171144Z 32010G16KT 08/01 A3013 RMK A01 T00760007  RH  062%=      5-min Rain = 0
KPD2 171145Z 31009KT 08/01 A3013 RMK A01 T00760007  RH  062%=      5-min Rain = 0
KPD2 171146Z 29010KT 08/01 A3013 RMK A01 T00750006  RH  062%=      5-min Rain = 0
KPD2 171147Z 30009G16KT 08/01 A3013 RMK A01 T00750007  RH  062%=      5-min Rain = 0
KPD2 171148Z 30009KT 08/01 A3013 RMK A01 T00750007  RH  062%=      5-min Rain = 0
KPD2 171149Z 30009KT 08/01 A3013 RMK A01 T00750007  RH  062%=      5-min Rain = 0
KPD2 171150Z 30008KT 07/01 A3013 RMK A01 T00740007  RH  062%=      5-min Rain = 0
KPD2 171151Z 30009G14KT 08/01 A3013 RMK A01 T00750007  RH  062%=      5-min Rain = 0
KPD2 171152Z 29011KT 07/01 A3013 RMK A01 T00740007  RH  062%=      5-min Rain = 0
KPD2 171153Z 31009KT 07/01 A3013 RMK A01 T00740007  RH  062%=      5-min Rain = 0
KPD2 171154Z 31008G13KT 07/01 A3014 RMK A01 T00740006  RH  062%=      5-min Rain = 0
KPD2 171155Z 31006KT 07/01 A3014 RMK A01 T00740006  RH  062%=      5-min Rain = 0
KPD2 171156Z 31010G15KT 07/01 A3014 RMK A01 T00730006  RH  062%=      5-min Rain = 0
KPD2 171157Z 30010G16KT 07/01 A3014 RMK A01 T00730007  RH  063%=      5-min Rain = 0
KPD2 171158Z 33012G17KT 07/01 A3014 RMK A01 T00730006  RH  062%=      5-min Rain = 0
KPD2 171159Z 31011KT 07/01 A3014 RMK A01 T00730006  RH  062%=      5-min Rain = 0
KPD2 171200Z 30011KT 07/01 A3014 RMK A01 T00740007  RH  062%=      5-min Rain = 0
KPD2 171201Z 29008G13KT 07/01 A3014 RMK A01 T00740006  RH  062%=      5-min Rain = 0
KPD2 171202Z 31007KT 08/01 A3014 RMK A01 T00750006  RH  062%=      5-min Rain = 0
KPD2 171203Z 30009KT 07/01 A3014 RMK A01 T00740006  RH  062%=      5-min Rain = 0
KPD2 171204Z 31009KT 07/01 A3015 RMK A01 T00730006  RH  062%=      5-min Rain = 0
KPD2 171205Z 30010KT 07/01 A3015 RMK A01 T00730006  RH  063%=      5-min Rain = 0
KPD2 171206Z 29010G15KT 07/01 A3015 RMK A01 T00720006  RH  063%=      5-min Rain = 0
KPD2 171207Z 31010G16KT 07/01 A3015 RMK A01 T00730006  RH  063%=      5-min Rain = 0
KPD2 171208Z 29010KT 07/01 A3015 RMK A01 T00740007  RH  062%=      5-min Rain = 0
KPD2 171209Z 29008KT 07/01 A3015 RMK A01 T00730006  RH  062%=      5-min Rain = 0
KPD2 171210Z 30010KT 07/01 A3015 RMK A01 T00730006  RH  062%=      5-min Rain = 0
KPD2 171211Z 29009KT 07/01 A3015 RMK A01 T00730006  RH  063%=      5-min Rain = 0
KPD2 171212Z 29008KT 07/01 A3015 RMK A01 T00730006  RH  063%=      5-min Rain = 0
KPD2 171213Z 32009KT 07/01 A3015 RMK A01 T00720006  RH  063%=      5-min Rain = 0
KPD2 171214Z 32009KT 07/01 A3015 RMK A01 T00710005  RH  063%=      5-min Rain = 0
KPD2 171215Z 30008KT 07/01 A3015 RMK A01 T00710006  RH  063%=      5-min Rain = 0
KPD2 171216Z 31008G14KT 07/01 A3015 RMK A01 T00710006  RH  063%=      5-min Rain = 0
KPD2 171217Z 29008KT 07/01 A3015 RMK A01 T00700006  RH  064%=      5-min Rain = 0
KPD2 171218Z 31006KT 07/01 A3015 RMK A01 T00700006  RH  064%=      5-min Rain = 0
KPD2 171219Z 31010G15KT 07/01 A3015 RMK A01 T00710006  RH  064%=      5-min Rain = 0
KPD2 171220Z 30009KT 07/01 A3015 RMK A01 T00700006  RH  064%=      5-min Rain = 0
KPD2 171221Z 29006KT 07/01 A3015 RMK A01 T00700006  RH  064%=      5-min Rain = 0
KPD2 171222Z 30008KT 07/01 A3015 RMK A01 T00700006  RH  064%=      5-min Rain = 0
KPD2 171223Z 29007KT 07/01 A3015 RMK A01 T00710007  RH  064%=      5-min Rain = 0
KPD2 171224Z 31008G14KT 07/01 A3015 RMK A01 T00700006  RH  064%=      5-min Rain = 0
KPD2 171225Z 29011KT 07/01 A3015 RMK A01 T00700006  RH  064%=      5-min Rain = 0
KPD2 171226Z 29008G14KT 07/01 A3016 RMK A01 T00700006  RH  064%=      5-min Rain = 0
KPD2 171227Z 30008G14KT 07/01 A3016 RMK A01 T00700006  RH  064%=      5-min Rain = 0
KPD2 171228Z 29010G15KT 07/01 A3015 RMK A01 T00700006  RH  064%=      5-min Rain = 0
KPD2 171229Z 31006KT 07/01 A3016 RMK A01 T00700006  RH  064%=      5-min Rain = 0
KPD2 171230Z 30008KT 07/01 A3016 RMK A01 T00700006  RH  064%=      5-min Rain = 0
KPD2 171231Z 29005KT 07/01 A3016 RMK A01 T00700006  RH  064%=      5-min Rain = 0
KPD2 171232Z 30008KT 07/01 A3016 RMK A01 T00690006  RH  064%=      5-min Rain = 0
KPD2 171233Z 29007KT 07/01 A3016 RMK A01 T00690006  RH  064%=      5-min Rain = 0
KPD2 171234Z 29006KT 07/01 A3016 RMK A01 T00690006  RH  064%=      5-min Rain = 0
KPD2 171235Z 31007KT 07/01 A3016 RMK A01 T00680006  RH  064%=      5-min Rain = 0
KPD2 171236Z 30008KT 07/01 A3016 RMK A01 T00680006  RH  065%=      5-min Rain = 0
KPD2 171237Z 31005G10KT 07/01 A3016 RMK A01 T00680006  RH  065%=      5-min Rain = 0
KPD2 171238Z 31004KT 07/01 A3016 RMK A01 T00680006  RH  064%=      5-min Rain = 0
KPD2 171239Z 30006KT 07/01 A3016 RMK A01 T00680006  RH  065%=      5-min Rain = 0
KPD2 171240Z 29005G10KT 07/01 A3016 RMK A01 T00680006  RH  065%=      5-min Rain = 0
KPD2 171241Z 30007KT 07/01 A3016 RMK A01 T00680006  RH  065%=      5-min Rain = 0
KPD2 171242Z 29009KT 07/01 A3016 RMK A01 T00670006  RH  065%=      5-min Rain = 0
KPD2 171243Z 30007KT 07/01 A3016 RMK A01 T00670006  RH  065%=      5-min Rain = 0
KPD2 171244Z 31005KT 07/01 A3016 RMK A01 T00680007  RH  065%=      5-min Rain = 0
KPD2 171245Z 27005KT 07/01 A3016 RMK A01 T00680006  RH  065%=      5-min Rain = 0
KPD2 171246Z 30004KT 07/01 A3017 RMK A01 T00670006  RH  065%=      5-min Rain = 0
KPD2 171247Z 29005KT 07/01 A3017 RMK A01 T00670006  RH  065%=      5-min Rain = 0
KPD2 171248Z 29004KT 07/01 A3017 RMK A01 T00660006  RH  065%=      5-min Rain = 0
KPD2 171249Z 27004KT 07/01 A3017 RMK A01 T00660006  RH  065%=      5-min Rain = 0
KPD2 171250Z 28007KT 07/01 A3017 RMK A01 T00660006  RH  066%=      5-min Rain = 0
KPD2 171251Z 30005KT 07/01 A3017 RMK A01 T00660007  RH  066%=      5-min Rain = 0
KPD2 171252Z 29005KT 07/01 A3017 RMK A01 T00660006  RH  066%=      5-min Rain = 0
KPD2 171253Z 29005KT 07/01 A3017 RMK A01 T00650006  RH  066%=      5-min Rain = 0
KPD2 171254Z 29006KT 07/01 A3017 RMK A01 T00650006  RH  066%=      5-min Rain = 0
KPD2 171255Z 27006KT 07/01 A3017 RMK A01 T00650006  RH  066%=      5-min Rain = 0
KPD2 171256Z 27005KT 07/01 A3017 RMK A01 T00650007  RH  066%=      5-min Rain = 0
KPD2 171257Z 29004KT 07/01 A3017 RMK A01 T00650007  RH  066%=      5-min Rain = 0
KPD2 171258Z 29005KT 07/01 A3017 RMK A01 T00650007  RH  066%=      5-min Rain = 0
KPD2 171259Z 29004KT 07/01 A3018 RMK A01 T00650006  RH  066%=      5-min Rain = 0
KPD2 171300Z 31005KT 06/01 A3018 RMK A01 T00640006  RH  066%=      5-min Rain = 0
KPD2 171301Z 31004KT 06/01 A3018 RMK A01 T00630006  RH  067%=      5-min Rain = 0
KPD2 171302Z 27005KT 06/01 A3018 RMK A01 T00630006  RH  067%=      5-min Rain = 0
KPD2 171303Z 29005KT 06/01 A3018 RMK A01 T00630006  RH  067%=      5-min Rain = 0
KPD2 171304Z 26003KT 06/01 A3018 RMK A01 T00630006  RH  067%=      5-min Rain = 0
KPD2 171305Z 30003KT 06/01 A3018 RMK A01 T00630006  RH  067%=      5-min Rain = 0
KPD2 171306Z 30004KT 06/01 A3018 RMK A01 T00620006  RH  067%=      5-min Rain = 0
KPD2 171307Z 30001KT 06/01 A3018 RMK A01 T00610005  RH  067%=      5-min Rain = 0
KPD2 171308Z 29003KT 06/01 A3018 RMK A01 T00600005  RH  068%=      5-min Rain = 0
KPD2 171309Z 29003KT 06/01 A3018 RMK A01 T00600006  RH  068%=      5-min Rain = 0
KPD2 171310Z 29004KT 06/01 A3018 RMK A01 T00590006  RH  068%=      5-min Rain = 0
KPD2 171311Z 27005KT 06/01 A3018 RMK A01 T00590006  RH  069%=      5-min Rain = 0
KPD2 171312Z 25005KT 06/01 A3018 RMK A01 T00600007  RH  069%=      5-min Rain = 0
KPD2 171313Z 27004KT 06/01 A3018 RMK A01 T00600007  RH  069%=      5-min Rain = 0
KPD2 171314Z 29005KT 06/01 A3018 RMK A01 T00610008  RH  068%=      5-min Rain = 0
KPD2 171315Z 32003KT 06/01 A3019 RMK A01 T00620007  RH  068%=      5-min Rain = 0
KPD2 171316Z 32001KT 06/01 A3019 RMK A01 T00610006  RH  068%=      5-min Rain = 0
KPD2 171317Z 26003KT 06/01 A3019 RMK A01 T00610006  RH  068%=      5-min Rain = 0
KPD2 171318Z 26003KT 06/01 A3019 RMK A01 T00610007  RH  068%=      5-min Rain = 0
KPD2 171319Z 26001KT 06/01 A3019 RMK A01 T00610007  RH  068%=      5-min Rain = 0
KPD2 171320Z 25002KT 06/01 A3019 RMK A01 T00600006  RH  068%=      5-min Rain = 0
KPD2 171321Z 30001KT 06/01 A3019 RMK A01 T00590006  RH  068%=      5-min Rain = 0
KPD2 171322Z 27003KT 06/01 A3019 RMK A01 T00580005  RH  068%=      5-min Rain = 0
KPD2 171323Z 28004KT 06/01 A3019 RMK A01 T00580006  RH  069%=      5-min Rain = 0
KPD2 171324Z 27005KT 06/01 A3019 RMK A01 T00570005  RH  069%=      5-min Rain = 0
KPD2 171325Z 28006KT 06/01 A3019 RMK A01 T00580006  RH  070%=      5-min Rain = 0
KPD2 171326Z 30005KT 06/01 A3019 RMK A01 T00590008  RH  070%=      5-min Rain = 0
KPD2 171327Z 30004KT 06/01 A3019 RMK A01 T00610009  RH  069%=      5-min Rain = 0
KPD2 171328Z 28003KT 06/01 A3019 RMK A01 T00620008  RH  068%=      5-min Rain = 0
KPD2 171329Z 28003KT 06/01 A3019 RMK A01 T00620008  RH  068%=      5-min Rain = 0
KPD2 171330Z 27002KT 06/01 A3019 RMK A01 T00620007  RH  068%=      5-min Rain = 0
KPD2 171331Z 28002KT 06/01 A302 RMK A01 T00610007  RH  068%=      5-min Rain = 0
KPD2 171332Z 28002KT 06/01 A302 RMK A01 T00600006  RH  068%=      5-min Rain = 0
KPD2 171333Z 31002KT 06/01 A302 RMK A01 T00590006  RH  068%=      5-min Rain = 0
KPD2 171334Z 33002KT 06/01 A302 RMK A01 T00590006  RH  069%=      5-min Rain = 0
KPD2 171335Z 32002KT 06/01 A302 RMK A01 T00570005  RH  069%=      5-min Rain = 0
KPD2 171336Z 31003KT 06/01 A302 RMK A01 T00570006  RH  070%=      5-min Rain = 0
KPD2 171337Z 31002KT 06/01 A302 RMK A01 T00560005  RH  070%=      5-min Rain = 0
KPD2 171338Z 32003KT 06/01 A302 RMK A01 T00550005  RH  070%=      5-min Rain = 0
KPD2 171339Z 31003KT 06/01 A302 RMK A01 T00550005  RH  070%=      5-min Rain = 0
KPD2 171340Z 32003KT 06/01 A302 RMK A01 T00550006  RH  071%=      5-min Rain = 0
KPD2 171341Z 33003KT 06/01 A302 RMK A01 T00550006  RH  071%=      5-min Rain = 0
KPD2 171342Z 33002KT 06/01 A302 RMK A01 T00550006  RH  071%=      5-min Rain = 0
KPD2 171343Z 32003KT 05/01 A302 RMK A01 T00540005  RH  071%=      5-min Rain = 0
KPD2 171344Z 28002KT 05/00 A302 RMK A01 T00530004  RH  071%=      5-min Rain = 0
KPD2 171345Z 30004KT 05/01 A302 RMK A01 T00530005  RH  071%=      5-min Rain = 0
KPD2 171346Z 33003KT 05/01 A302 RMK A01 T00530006  RH  072%=      5-min Rain = 0
KPD2 171347Z 33004KT 05/01 A302 RMK A01 T00530005  RH  071%=      5-min Rain = 0
KPD2 171348Z 32003KT 05/01 A302 RMK A01 T00520006  RH  072%=      5-min Rain = 0
KPD2 171349Z 33002KT 05/01 A302 RMK A01 T00520006  RH  072%=      5-min Rain = 0
KPD2 171350Z 33003KT 05/01 A302 RMK A01 T00530007  RH  072%=      5-min Rain = 0
KPD2 171351Z 32003KT 05/01 A302 RMK A01 T00520006  RH  072%=      5-min Rain = 0
KPD2 171352Z 30003KT 05/01 A302 RMK A01 T00520006  RH  072%=      5-min Rain = 0
KPD2 171353Z 31002KT 05/01 A302 RMK A01 T00520006  RH  072%=      5-min Rain = 0
KPD2 171354Z 33003KT 05/01 A3021 RMK A01 T00520006  RH  072%=      5-min Rain = 0
KPD2 171355Z 30003KT 05/01 A3021 RMK A01 T00530007  RH  072%=      5-min Rain = 0
KPD2 171356Z 32004KT 05/01 A3021 RMK A01 T00530007  RH  072%=      5-min Rain = 0
KPD2 171357Z 32003KT 05/01 A3021 RMK A01 T00530007  RH  072%=      5-min Rain = 0
KPD2 171358Z 31003KT 05/01 A3021 RMK A01 T00530007  RH  072%=      5-min Rain = 0
KPD2 171359Z 29004KT 05/01 A3021 RMK A01 T00530008  RH  072%=      5-min Rain = 0
KPD2 171400Z 31003KT 05/01 A3021 RMK A01 T00540009  RH  072%=      5-min Rain = 0
KPD2 171401Z 32004KT 06/01 A3021 RMK A01 T00550009  RH  072%=      5-min Rain = 0
KPD2 171402Z 34003KT 06/01 A3021 RMK A01 T00550009  RH  072%=      5-min Rain = 0
KPD2 171403Z 34003KT 06/01 A3021 RMK A01 T00550008  RH  072%=      5-min Rain = 0
KPD2 171404Z 33004KT 06/01 A3021 RMK A01 T00550008  RH  072%=      5-min Rain = 0
KPD2 171405Z 29003KT 06/01 A3021 RMK A01 T00550009  RH  072%=      5-min Rain = 0
KPD2 171406Z 30005KT 06/01 A3021 RMK A01 T00550010  RH  072%=      5-min Rain = 0
KPD2 171407Z 30005KT 06/01 A3021 RMK A01 T00570011  RH  072%=      5-min Rain = 0
KPD2 171408Z 32004KT 06/01 A3021 RMK A01 T00580012  RH  072%=      5-min Rain = 0
KPD2 171409Z 31005KT 06/01 A3021 RMK A01 T00580011  RH  072%=      5-min Rain = 0
KPD2 171410Z 31004KT 06/01 A3021 RMK A01 T00590012  RH  072%=      5-min Rain = 0
KPD2 171411Z 32005KT 06/01 A3021 RMK A01 T00590012  RH  072%=      5-min Rain = 0
KPD2 171412Z 33005KT 06/01 A3021 RMK A01 T00600013  RH  072%=      5-min Rain = 0
KPD2 171413Z 30005KT 06/01 A3021 RMK A01 T00610013  RH  071%=      5-min Rain = 0
KPD2 171414Z 31006KT 06/01 A3021 RMK A01 T00620013  RH  071%=      5-min Rain = 0
KPD2 171415Z 31006KT 06/01 A3021 RMK A01 T00630014  RH  071%=      5-min Rain = 0
KPD2 171416Z 32007KT 06/02 A3021 RMK A01 T00640015  RH  071%=      5-min Rain = 0
KPD2 171417Z 30005KT 06/01 A3021 RMK A01 T00640014  RH  070%=      5-min Rain = 0
KPD2 171418Z 30004KT 06/01 A3021 RMK A01 T00640014  RH  070%=      5-min Rain = 0
KPD2 171419Z 30003KT 07/01 A302 RMK A01 T00650014  RH  070%=      5-min Rain = 0
KPD2 171420Z 30004KT 07/01 A302 RMK A01 T00660014  RH  070%=      5-min Rain = 0
KPD2 171421Z 31004KT 07/01 A3021 RMK A01 T00660014  RH  069%=      5-min Rain = 0
KPD2 171422Z 31004KT 07/01 A3021 RMK A01 T00660014  RH  069%=      5-min Rain = 0
KPD2 171423Z 34008KT 07/02 A3021 RMK A01 T00670015  RH  069%=      5-min Rain = 0
KPD2 171424Z 33005KT 07/02 A3021 RMK A01 T00680015  RH  069%=      5-min Rain = 0
KPD2 171425Z 32004KT 07/02 A3021 RMK A01 T00680016  RH  069%=      5-min Rain = 0
KPD2 171426Z 31005KT 07/02 A302 RMK A01 T00690016  RH  069%=      5-min Rain = 0
KPD2 171427Z 30004KT 07/02 A302 RMK A01 T00690016  RH  069%=      5-min Rain = 0
KPD2 171428Z 30004KT 07/02 A302 RMK A01 T00700017  RH  069%=      5-min Rain = 0
KPD2 171429Z 30003KT 07/02 A302 RMK A01 T00700017  RH  069%=      5-min Rain = 0
KPD2 171430Z 30003KT 07/02 A302 RMK A01 T00710017  RH  069%=      5-min Rain = 0
KPD2 171431Z 31005KT 07/02 A302 RMK A01 T00710017  RH  068%=      5-min Rain = 0
KPD2 171432Z 29004KT 07/02 A302 RMK A01 T00720017  RH  068%=      5-min Rain = 0
KPD2 171433Z 31005KT 07/02 A302 RMK A01 T00720017  RH  068%=      5-min Rain = 0
KPD2 171434Z 29004KT 07/02 A302 RMK A01 T00720017  RH  068%=      5-min Rain = 0
KPD2 171435Z 31006KT 07/02 A302 RMK A01 T00720017  RH  068%=      5-min Rain = 0
KPD2 171436Z 31004KT 07/02 A3021 RMK A01 T00720017  RH  068%=      5-min Rain = 0
KPD2 171437Z 31004KT 07/02 A3021 RMK A01 T00730018  RH  068%=      5-min Rain = 0
KPD2 171438Z 31004KT 07/02 A3021 RMK A01 T00740018  RH  068%=      5-min Rain = 0
KPD2 171439Z 30008KT 07/02 A3021 RMK A01 T00740018  RH  068%=      5-min Rain = 0
KPD2 171440Z 31006KT 07/02 A302 RMK A01 T00740018  RH  068%=      5-min Rain = 0
KPD2 171441Z 29004KT 08/02 A3021 RMK A01 T00750019  RH  068%=      5-min Rain = 0
KPD2 171442Z 31006KT 08/02 A3021 RMK A01 T00750019  RH  068%=      5-min Rain = 0
KPD2 171443Z 33007KT 08/02 A3021 RMK A01 T00760020  RH  068%=      5-min Rain = 0
KPD2 171444Z 30005KT 08/02 A3021 RMK A01 T00760020  RH  067%=      5-min Rain = 0
KPD2 171445Z 30004KT 08/02 A3021 RMK A01 T00770020  RH  067%=      5-min Rain = 0
KPD2 171446Z 30005KT 08/02 A3021 RMK A01 T00770020  RH  067%=      5-min Rain = 0
KPD2 171447Z 29005KT 08/02 A3021 RMK A01 T00770020  RH  067%=      5-min Rain = 0
KPD2 171448Z 32006KT 08/02 A3021 RMK A01 T00770020  RH  067%=      5-min Rain = 0
KPD2 171449Z 31009KT 08/02 A3021 RMK A01 T00780020  RH  067%=      5-min Rain = 0
KPD2 171450Z 28005KT 08/02 A3021 RMK A01 T00790020  RH  067%=      5-min Rain = 0
KPD2 171451Z 30004KT 08/02 A3021 RMK A01 T00790021  RH  067%=      5-min Rain = 0
KPD2 171452Z 29004KT 08/02 A3021 RMK A01 T00790021  RH  067%=      5-min Rain = 0
KPD2 171453Z 30004KT 08/02 A3021 RMK A01 T00800021  RH  066%=      5-min Rain = 0
KPD2 171454Z 29004KT 08/02 A3021 RMK A01 T00800020  RH  066%=      5-min Rain = 0
KPD2 171455Z 32004KT 08/02 A3021 RMK A01 T00800021  RH  066%=      5-min Rain = 0
KPD2 171456Z 31005KT 08/02 A3021 RMK A01 T00810021  RH  066%=      5-min Rain = 0
KPD2 171457Z 30005KT 08/02 A3021 RMK A01 T00820022  RH  066%=      5-min Rain = 0
KPD2 171458Z 33005KT 08/02 A3021 RMK A01 T00820022  RH  066%=      5-min Rain = 0
KPD2 171459Z 31004KT 08/02 A3021 RMK A01 T00820021  RH  065%=      5-min Rain = 0
KPD2 171500Z 34004KT 08/02 A3021 RMK A01 T00830022  RH  066%=      5-min Rain = 0
KPD2 171501Z 35005KT 08/02 A3021 RMK A01 T00840023  RH  065%=      5-min Rain = 0
KPD2 171502Z 31004KT 09/02 A3021 RMK A01 T00850023  RH  065%=      5-min Rain = 0
KPD2 171503Z 31003KT 09/02 A3021 RMK A01 T00850022  RH  064%=      5-min Rain = 0
KPD2 171504Z 29003KT 09/02 A3021 RMK A01 T00860022  RH  064%=      5-min Rain = 0
KPD2 171505Z 31004KT 09/02 A3021 RMK A01 T00860022  RH  064%=      5-min Rain = 0
KPD2 171506Z 32002KT 09/02 A3021 RMK A01 T00860021  RH  064%=      5-min Rain = 0
KPD2 171507Z 30003KT 09/02 A3021 RMK A01 T00860021  RH  064%=      5-min Rain = 0
KPD2 171508Z 29004KT 09/02 A3021 RMK A01 T00870022  RH  064%=      5-min Rain = 0
KPD2 171509Z 33004KT 09/02 A3021 RMK A01 T00880023  RH  064%=      5-min Rain = 0
KPD2 171510Z 34006G12KT 09/02 A3021 RMK A01 T00900023  RH  063%=      5-min Rain = 0
KPD2 171511Z 32007G12KT 09/02 A3021 RMK A01 T00900022  RH  062%=      5-min Rain = 0
KPD2 171512Z 34009KT 09/02 A3021 RMK A01 T00910021  RH  062%=      5-min Rain = 0
KPD2 171513Z 35005G10KT 09/02 A3021 RMK A01 T00910021  RH  061%=      5-min Rain = 0
KPD2 171514Z 34008KT 09/02 A3021 RMK A01 T00910021  RH  061%=      5-min Rain = 0
KPD2 171515Z 33006KT 09/02 A3021 RMK A01 T00910021  RH  061%=      5-min Rain = 0
KPD2 171516Z 34009KT 09/02 A3021 RMK A01 T00920021  RH  061%=      5-min Rain = 0
KPD2 171517Z 35008KT 09/02 A3021 RMK A01 T00930021  RH  061%=      5-min Rain = 0
KPD2 171518Z 33008KT 09/02 A3021 RMK A01 T00940021  RH  060%=      5-min Rain = 0
KPD2 171519Z 31005G10KT 09/02 A3021 RMK A01 T00930020  RH  060%=      5-min Rain = 0
KPD2 171520Z 31003KT 09/02 A3021 RMK A01 T00920019  RH  060%=      5-min Rain = 0
KPD2 171521Z 28002KT 09/02 A3021 RMK A01 T00920020  RH  061%=      5-min Rain = 0
KPD2 171522Z 32005KT 09/02 A3021 RMK A01 T00930021  RH  061%=      5-min Rain = 0
KPD2 171523Z 34006G12KT 09/02 A3021 RMK A01 T00940022  RH  060%=      5-min Rain = 0
KPD2 171524Z 00005KT 10/02 A3021 RMK A01 T00960021  RH  060%=      5-min Rain = 0
KPD2 171525Z 33006KT 10/02 A3021 RMK A01 T00960021  RH  060%=      5-min Rain = 0
KPD2 171526Z 33007KT 10/02 A3021 RMK A01 T00970022  RH  059%=      5-min Rain = 0
KPD2 171527Z 33006KT 10/02 A3021 RMK A01 T00980020  RH  058%=      5-min Rain = 0
KPD2 171528Z 34006KT 10/02 A3021 RMK A01 T00970020  RH  059%=      5-min Rain = 0
KPD2 171529Z 34006KT 10/02 A3021 RMK A01 T00990021  RH  059%=      5-min Rain = 0
KPD2 171530Z 32008KT 10/02 A3022 RMK A01 T01000021  RH  058%=      5-min Rain = 0
KPD2 171531Z 33010KT 10/02 A3022 RMK A01 T01010021  RH  058%=      5-min Rain = 0
KPD2 171532Z 35006KT 10/02 A3022 RMK A01 T01000021  RH  058%=      5-min Rain = 0
KPD2 171533Z 33004KT 10/02 A3022 RMK A01 T01000022  RH  058%=      5-min Rain = 0
KPD2 171534Z 33004KT 10/02 A3022 RMK A01 T01020022  RH  058%=      5-min Rain = 0
KPD2 171535Z 33006KT 10/02 A3022 RMK A01 T01020021  RH  057%=      5-min Rain = 0
KPD2 171536Z 34004G10KT 10/02 A3022 RMK A01 T01020020  RH  057%=      5-min Rain = 0
KPD2 171537Z 02009KT 10/02 A3022 RMK A01 T01020019  RH  057%=      5-min Rain = 0
KPD2 171538Z 01006KT 10/02 A3022 RMK A01 T01020020  RH  057%=      5-min Rain = 0
KPD2 171539Z 00005KT 10/02 A3022 RMK A01 T01030021  RH  057%=      5-min Rain = 0
KPD2 171540Z 31005KT 10/02 A3021 RMK A01 T01040022  RH  057%=      5-min Rain = 0
KPD2 171541Z 33009G14KT 11/02 A3021 RMK A01 T01050021  RH  056%=      5-min Rain = 0
KPD2 171542Z 01006G11KT 10/02 A3021 RMK A01 T01040021  RH  056%=      5-min Rain = 0
KPD2 171543Z 32005KT 11/02 A3021 RMK A01 T01050021  RH  056%=      5-min Rain = 0
KPD2 171544Z 35007KT 11/02 A3021 RMK A01 T01060021  RH  056%=      5-min Rain = 0
KPD2 171545Z 00009G14KT 11/02 A3021 RMK A01 T01060020  RH  055%=      5-min Rain = 0
KPD2 171546Z 01010KT 11/02 A3021 RMK A01 T01050020  RH  055%=      5-min Rain = 0
KPD2 171547Z 00008KT 11/02 A3021 RMK A01 T01060021  RH  056%=      5-min Rain = 0
KPD2 171548Z 35007KT 11/02 A3021 RMK A01 T01070021  RH  055%=      5-min Rain = 0
KPD2 171549Z 35004G9KT 11/02 A3021 RMK A01 T01070019  RH  055%=      5-min Rain = 0
KPD2 171550Z 34005KT 11/02 A3021 RMK A01 T01060021  RH  055%=      5-min Rain = 0
KPD2 171551Z 33005KT 11/02 A3021 RMK A01 T01080022  RH  055%=      5-min Rain = 0
KPD2 171552Z 34005KT 11/02 A3021 RMK A01 T01090021  RH  054%=      5-min Rain = 0
KPD2 171553Z 35005KT 11/02 A3021 RMK A01 T01110022  RH  054%=      5-min Rain = 0
KPD2 171554Z 35008KT 11/02 A3021 RMK A01 T01120021  RH  054%=      5-min Rain = 0
KPD2 171555Z 35006KT 11/02 A3021 RMK A01 T01120020  RH  053%=      5-min Rain = 0
KPD2 171556Z 34006KT 11/02 A3021 RMK A01 T01120020  RH  053%=      5-min Rain = 0
KPD2 171557Z 35006G11KT 11/02 A3021 RMK A01 T01110019  RH  053%=      5-min Rain = 0
KPD2 171558Z 00006KT 11/02 A3021 RMK A01 T01110020  RH  053%=      5-min Rain = 0
KPD2 171559Z 34008G13KT 11/02 A3021 RMK A01 T01120020  RH  053%=      5-min Rain = 0
KPD2 171600Z 36010KT 11/02 A3021 RMK A01 T01110018  RH  053%=      5-min Rain = 0
KPD2 171601Z 36005KT 11/02 A3021 RMK A01 T01100019  RH  053%=      5-min Rain = 0
KPD2 171602Z 36008KT 11/02 A3021 RMK A01 T01100018  RH  053%=      5-min Rain = 0
KPD2 171603Z 36009KT 11/02 A3021 RMK A01 T01100018  RH  053%=      5-min Rain = 0
KPD2 171604Z 02009KT 11/02 A3021 RMK A01 T01100018  RH  053%=      5-min Rain = 0
KPD2 171605Z 35007KT 11/02 A3021 RMK A01 T01090017  RH  053%=      5-min Rain = 0
KPD2 171606Z 33006KT 11/02 A3021 RMK A01 T01100019  RH  054%=      5-min Rain = 0
KPD2 171607Z 34007KT 11/02 A3021 RMK A01 T01120019  RH  053%=      5-min Rain = 0
KPD2 171608Z 34011KT 11/02 A3021 RMK A01 T01130019  RH  052%=      5-min Rain = 0
KPD2 171609Z 35009KT 11/02 A3021 RMK A01 T01130018  RH  052%=      5-min Rain = 0
KPD2 171610Z 01005KT 11/02 A3021 RMK A01 T01120018  RH  052%=      5-min Rain = 0
KPD2 171611Z 00005G11KT 11/02 A3021 RMK A01 T01120018  RH  052%=      5-min Rain = 0
KPD2 171612Z 35010KT 11/02 A3021 RMK A01 T01120018  RH  052%=      5-min Rain = 0
KPD2 171613Z 34005KT 11/02 A3021 RMK A01 T01130017  RH  052%=      5-min Rain = 0
KPD2 171614Z 02002KT 11/02 A3021 RMK A01 T01100015  RH  052%=      5-min Rain = 0
KPD2 171615Z 01002G7KT 11/02 A3021 RMK A01 T01100017  RH  053%=      5-min Rain = 0
KPD2 171616Z 33007G12KT 11/02 A3021 RMK A01 T01110019  RH  053%=      5-min Rain = 0
KPD2 171617Z 34009KT 11/02 A3021 RMK A01 T01130019  RH  052%=      5-min Rain = 0
KPD2 171618Z 34004KT 11/02 A3021 RMK A01 T01130019  RH  052%=      5-min Rain = 0
KPD2 171619Z 34004KT 11/02 A3021 RMK A01 T01130019  RH  052%=      5-min Rain = 0
KPD2 171620Z 34007KT 12/02 A3021 RMK A01 T01150021  RH  052%=      5-min Rain = 0
KPD2 171621Z 34006KT 12/02 A3021 RMK A01 T01170022  RH  052%=      5-min Rain = 0
KPD2 171622Z 33007KT 12/02 A3021 RMK A01 T01200022  RH  051%=      5-min Rain = 0
KPD2 171623Z 00010KT 12/02 A3021 RMK A01 T01200020  RH  050%=      5-min Rain = 0
KPD2 171624Z 03006KT 12/02 A3021 RMK A01 T01190019  RH  050%=      5-min Rain = 0
KPD2 171625Z 36007KT 12/02 A3021 RMK A01 T01190020  RH  051%=      5-min Rain = 0
KPD2 171626Z 36007KT 12/02 A3021 RMK A01 T01180019  RH  051%=      5-min Rain = 0
KPD2 171627Z 01006KT 12/02 A3021 RMK A01 T01170018  RH  051%=      5-min Rain = 0
KPD2 171628Z 35005KT 12/02 A3021 RMK A01 T01170019  RH  051%=      5-min Rain = 0
KPD2 171629Z 34004KT 12/02 A3021 RMK A01 T01170019  RH  051%=      5-min Rain = 0
KPD2 171630Z 32007KT 12/02 A3021 RMK A01 T01180020  RH  051%=      5-min Rain = 0
KPD2 171631Z 35004KT 12/02 A3021 RMK A01 T01180020  RH  051%=      5-min Rain = 0
KPD2 171632Z 01005KT 12/02 A3021 RMK A01 T01180020  RH  051%=      5-min Rain = 0
KPD2 171633Z 01005KT 12/02 A3021 RMK A01 T01200021  RH  051%=      5-min Rain = 0
KPD2 171634Z 33008KT 12/02 A3021 RMK A01 T01210021  RH  050%=      5-min Rain = 0
KPD2 171635Z 00006KT 12/02 A3021 RMK A01 T01210020  RH  050%=      5-min Rain = 0
KPD2 171636Z 34004G9KT 12/02 A3021 RMK A01 T01200020  RH  050%=      5-min Rain = 0
KPD2 171637Z 35005KT 12/02 A3021 RMK A01 T01230024  RH  051%=      5-min Rain = 0
KPD2 171638Z 04005KT 13/02 A3021 RMK A01 T01260023  RH  049%=      5-min Rain = 0
KPD2 171639Z 08003G8KT 13/02 A3021 RMK A01 T01250020  RH  049%=      5-min Rain = 0
KPD2 171640Z 30003KT 12/02 A302 RMK A01 T01240020  RH  049%=      5-min Rain = 0
KPD2 171641Z 34007KT 12/02 A302 RMK A01 T01240021  RH  049%=      5-min Rain = 0
KPD2 171642Z 35009KT 13/02 A302 RMK A01 T01250021  RH  049%=      5-min Rain = 0
KPD2 171643Z 35010KT 13/02 A302 RMK A01 T01250020  RH  049%=      5-min Rain = 0
KPD2 171644Z 35008KT 12/02 A302 RMK A01 T01240020  RH  049%=      5-min Rain = 0
KPD2 171645Z 36009KT 12/02 A302 RMK A01 T01230020  RH  049%=      5-min Rain = 0
KPD2 171646Z 04004KT 12/02 A302 RMK A01 T01220019  RH  049%=      5-min Rain = 0
KPD2 171647Z 07005KT 12/02 A302 RMK A01 T01230020  RH  049%=      5-min Rain = 0
KPD2 171648Z 01003KT 12/02 A302 RMK A01 T01230020  RH  049%=      5-min Rain = 0
KPD2 171649Z 35005KT 12/02 A302 RMK A01 T01240022  RH  050%=      5-min Rain = 0
KPD2 171650Z 33005KT 13/02 A302 RMK A01 T01250021  RH  049%=      5-min Rain = 0
KPD2 171651Z 01008KT 13/02 A302 RMK A01 T01260022  RH  049%=      5-min Rain = 0
KPD2 171652Z 04006KT 13/02 A302 RMK A01 T01270021  RH  048%=      5-min Rain = 0
KPD2 171653Z 02005KT 13/02 A302 RMK A01 T01260020  RH  049%=      5-min Rain = 0
KPD2 171654Z 02004KT 13/02 A302 RMK A01 T01270022  RH  049%=      5-min Rain = 0
KPD2 171655Z 34007KT 13/02 A302 RMK A01 T01290021  RH  048%=      5-min Rain = 0
KPD2 171656Z 33007KT 13/02 A302 RMK A01 T01290020  RH  048%=      5-min Rain = 0
KPD2 171657Z 34007KT 13/02 A302 RMK A01 T01280020  RH  048%=      5-min Rain = 0
KPD2 171658Z 35005KT 13/02 A302 RMK A01 T01300022  RH  048%=      5-min Rain = 0
KPD2 171659Z 25004KT 13/02 A302 RMK A01 T01310020  RH  047%=      5-min Rain = 0
KPD2 171700Z 14005KT 13/02 A3019 RMK A01 T01290018  RH  047%=      5-min Rain = 0
KPD2 171701Z 02003KT 13/02 A302 RMK A01 T01260020  RH  048%=      5-min Rain = 0
KPD2 171702Z 02007KT 13/02 A302 RMK A01 T01280022  RH  049%=      5-min Rain = 0
KPD2 171703Z 02004KT 13/02 A302 RMK A01 T01310021  RH  047%=      5-min Rain = 0
KPD2 171704Z 02009G14KT 13/02 A302 RMK A01 T01310020  RH  047%=      5-min Rain = 0
KPD2 171705Z 36007KT 13/02 A302 RMK A01 T01300019  RH  047%=      5-min Rain = 0
KPD2 171706Z 35007KT 13/02 A302 RMK A01 T01310019  RH  047%=      5-min Rain = 0
KPD2 171707Z 35005G10KT 13/02 A302 RMK A01 T01320020  RH  047%=      5-min Rain = 0
KPD2 171708Z 36005G10KT 13/02 A302 RMK A01 T01330021  RH  047%=      5-min Rain = 0
KPD2 171709Z 00005G10KT 13/02 A302 RMK A01 T01340022  RH  046%=      5-min Rain = 0
KPD2 171710Z 05004KT 14/02 A302 RMK A01 T01350021  RH  046%=      5-min Rain = 0
KPD2 171711Z 11003KT 13/02 A302 RMK A01 T01320019  RH  046%=      5-min Rain = 0
KPD2 171712Z 02002KT 13/02 A302 RMK A01 T01300020  RH  047%=      5-min Rain = 0
KPD2 171713Z 34001KT 13/02 A302 RMK A01 T01300020  RH  047%=      5-min Rain = 0
KPD2 171714Z 34003KT 13/02 A302 RMK A01 T01300020  RH  047%=      5-min Rain = 0
KPD2 171715Z 34004KT 13/02 A3019 RMK A01 T01320022  RH  047%=      5-min Rain = 0
KPD2 171716Z 35008KT 14/02 A302 RMK A01 T01360024  RH  047%=      5-min Rain = 0
KPD2 171717Z 34005KT 14/02 A302 RMK A01 T01380023  RH  046%=      5-min Rain = 0
KPD2 171718Z 32005KT 14/02 A302 RMK A01 T01380022  RH  045%=      5-min Rain = 0
KPD2 171719Z 33004KT 14/02 A302 RMK A01 T01380022  RH  045%=      5-min Rain = 0
KPD2 171720Z 32004KT 14/02 A302 RMK A01 T01380023  RH  046%=      5-min Rain = 0
KPD2 171721Z 33007KT 14/02 A302 RMK A01 T01400022  RH  045%=      5-min Rain = 0
KPD2 171722Z 00006KT 14/02 A302 RMK A01 T01390021  RH  045%=      5-min Rain = 0
KPD2 171723Z 35010KT 14/02 A302 RMK A01 T01390022  RH  045%=      5-min Rain = 0
KPD2 171724Z 01008KT 14/02 A302 RMK A01 T01370020  RH  045%=      5-min Rain = 0
KPD2 171725Z 02008KT 14/02 A302 RMK A01 T01350020  RH  046%=      5-min Rain = 0
KPD2 171726Z 01006G11KT 13/02 A302 RMK A01 T01340021  RH  046%=      5-min Rain = 0
KPD2 171727Z 36006G11KT 14/02 A302 RMK A01 T01350021  RH  046%=      5-min Rain = 0
KPD2 171728Z 35006KT 14/02 A302 RMK A01 T01360022  RH  046%=      5-min Rain = 0
KPD2 171729Z 35009G14KT 14/02 A302 RMK A01 T01370021  RH  045%=      5-min Rain = 0
KPD2 171730Z 03007KT 14/02 A302 RMK A01 T01370021  RH  045%=      5-min Rain = 0
KPD2 171731Z 03006KT 14/02 A302 RMK A01 T01370020  RH  045%=      5-min Rain = 0
KPD2 171732Z 03003KT 14/02 A302 RMK A01 T01370020  RH  045%=      5-min Rain = 0
KPD2 171733Z 35005G10KT 14/02 A302 RMK A01 T01350020  RH  046%=      5-min Rain = 0
KPD2 171734Z 34010KT 14/02 A302 RMK A01 T01380022  RH  046%=      5-min Rain = 0
KPD2 171735Z 34010KT 14/02 A302 RMK A01 T01390021  RH  045%=      5-min Rain = 0
KPD2 171736Z 34006KT 14/02 A302 RMK A01 T01400021  RH  045%=      5-min Rain = 0
KPD2 171737Z 33005KT 14/02 A302 RMK A01 T01400020  RH  044%=      5-min Rain = 0
KPD2 171738Z 32007KT 14/02 A3019 RMK A01 T01390020  RH  044%=      5-min Rain = 0
KPD2 171739Z 34007KT 14/02 A3019 RMK A01 T01380020  RH  045%=      5-min Rain = 0
KPD2 171740Z 33009KT 14/02 A3019 RMK A01 T01380021  RH  045%=      5-min Rain = 0
KPD2 171741Z 33010KT 14/02 A3019 RMK A01 T01390021  RH  045%=      5-min Rain = 0
KPD2 171742Z 32010KT 14/02 A3019 RMK A01 T01380021  RH  045%=      5-min Rain = 0
KPD2 171743Z 32007KT 14/02 A3019 RMK A01 T01380021  RH  045%=      5-min Rain = 0
KPD2 171744Z 01008KT 14/02 A302 RMK A01 T01390022  RH  045%=      5-min Rain = 0
KPD2 171745Z 35004KT 14/02 A302 RMK A01 T01400021  RH  045%=      5-min Rain = 0
KPD2 171746Z 30004KT 14/02 A3019 RMK A01 T01410022  RH  045%=      5-min Rain = 0
KPD2 171747Z 32004KT 14/02 A3019 RMK A01 T01410021  RH  044%=      5-min Rain = 0
KPD2 171748Z 01006KT 14/02 A3019 RMK A01 T01390021  RH  045%=      5-min Rain = 0
KPD2 171749Z 02004KT 14/02 A3019 RMK A01 T01410022  RH  045%=      5-min Rain = 0
KPD2 171750Z 01003KT 14/02 A3019 RMK A01 T01420023  RH  044%=      5-min Rain = 0
KPD2 171751Z 02007KT 15/02 A3019 RMK A01 T01450024  RH  044%=      5-min Rain = 0
KPD2 171752Z 01004G10KT 15/02 A3019 RMK A01 T01450022  RH  043%=      5-min Rain = 0
KPD2 171753Z 34004KT 15/02 A3019 RMK A01 T01450024  RH  044%=      5-min Rain = 0
KPD2 171754Z 34007KT 15/02 A3019 RMK A01 T01470023  RH  043%=      5-min Rain = 0
KPD2 171755Z 33009KT 15/02 A3019 RMK A01 T01470022  RH  043%=      5-min Rain = 0
KPD2 171756Z 34010KT 15/02 A3019 RMK A01 T01470022  RH  043%=      5-min Rain = 0
KPD2 171757Z 35008G13KT 15/02 A302 RMK A01 T01460023  RH  043%=      5-min Rain = 0
KPD2 171758Z 35006KT 15/02 A302 RMK A01 T01450022  RH  043%=      5-min Rain = 0
KPD2 171759Z 35008KT 15/02 A302 RMK A01 T01460024  RH  044%=      5-min Rain = 0
KPD2 171800Z 33004KT 15/02 A3019 RMK A01 T01460021  RH  043%=      5-min Rain = 0
KPD2 171801Z 33003KT 14/02 A3019 RMK A01 T01420020  RH  043%=      5-min Rain = 0
KPD2 171802Z 33006KT 14/02 A3019 RMK A01 T01430023  RH  044%=      5-min Rain = 0
KPD2 171803Z 35011KT 15/02 A3019 RMK A01 T01460024  RH  044%=      5-min Rain = 0
KPD2 171804Z 34008KT 15/02 A3019 RMK A01 T01480024  RH  043%=      5-min Rain = 0
KPD2 171805Z 34007G12KT 15/03 A3019 RMK A01 T01500025  RH  043%=      5-min Rain = 0
KPD2 171806Z 35004KT 15/02 A3019 RMK A01 T01510023  RH  042%=      5-min Rain = 0
KPD2 171807Z 35005KT 15/02 A3019 RMK A01 T01500023  RH  042%=      5-min Rain = 0
KPD2 171808Z 02004KT 15/02 A3019 RMK A01 T01510024  RH  042%=      5-min Rain = 0
KPD2 171809Z 34004KT 15/03 A3019 RMK A01 T01530025  RH  042%=      5-min Rain = 0
KPD2 171810Z 35011KT 15/02 A3019 RMK A01 T01530023  RH  042%=      5-min Rain = 0
KPD2 171811Z 36007KT 15/02 A3019 RMK A01 T01510022  RH  042%=      5-min Rain = 0
KPD2 171812Z 34005KT 15/02 A3019 RMK A01 T01520022  RH  042%=      5-min Rain = 0
KPD2 171813Z 35005KT 15/02 A3019 RMK A01 T01490020  RH  042%=      5-min Rain = 0
KPD2 171814Z 04006KT 15/02 A3019 RMK A01 T01490021  RH  042%=      5-min Rain = 0
KPD2 171815Z 01008KT 15/02 A3019 RMK A01 T01480022  RH  043%=      5-min Rain = 0
KPD2 171816Z 02005KT 15/02 A3019 RMK A01 T01480023  RH  043%=      5-min Rain = 0
KPD2 171817Z 02005KT 15/02 A3019 RMK A01 T01480023  RH  043%=      5-min Rain = 0
KPD2 171818Z 34006KT 15/02 A3018 RMK A01 T01490024  RH  043%=      5-min Rain = 0
KPD2 171819Z 32008KT 15/03 A3018 RMK A01 T01520025  RH  042%=      5-min Rain = 0
KPD2 171820Z 34009KT 15/02 A3018 RMK A01 T01520022  RH  042%=      5-min Rain = 0
KPD2 171821Z 33007G12KT 15/02 A3018 RMK A01 T01510022  RH  042%=      5-min Rain = 0
KPD2 171822Z 33007KT 15/02 A3018 RMK A01 T01490020  RH  042%=      5-min Rain = 0
KPD2 171823Z 34013KT 15/02 A3018 RMK A01 T01470020  RH  042%=      5-min Rain = 0
KPD2 171824Z 36008G13KT 15/02 A3018 RMK A01 T01460021  RH  043%=      5-min Rain = 0
KPD2 171825Z 33009KT 15/02 A3018 RMK A01 T01480022  RH  043%=      5-min Rain = 0
KPD2 171826Z 35005KT 15/02 A3018 RMK A01 T01490022  RH  042%=      5-min Rain = 0
KPD2 171827Z 34007KT 15/02 A3018 RMK A01 T01500021  RH  042%=      5-min Rain = 0
KPD2 171828Z 34008KT 15/02 A3018 RMK A01 T01480021  RH  042%=      5-min Rain = 0
KPD2 171829Z 35008KT 15/02 A3018 RMK A01 T01480022  RH  042%=      5-min Rain = 0
KPD2 171830Z 35006KT 15/02 A3018 RMK A01 T01490021  RH  042%=      5-min Rain = 0
KPD2 171831Z 01005KT 15/02 A3018 RMK A01 T01490022  RH  042%=      5-min Rain = 0
KPD2 171832Z 31007KT 15/02 A3018 RMK A01 T01520022  RH  042%=      5-min Rain = 0
KPD2 171833Z 31007KT 15/02 A3018 RMK A01 T01510020  RH  041%=      5-min Rain = 0
KPD2 171834Z 33009G16KT 15/02 A3018 RMK A01 T01500021  RH  042%=      5-min Rain = 0
KPD2 171835Z 02009KT 15/02 A3018 RMK A01 T01500020  RH  041%=      5-min Rain = 0
KPD2 171836Z 35006KT 15/02 A3018 RMK A01 T01490021  RH  042%=      5-min Rain = 0
KPD2 171837Z 34012KT 15/02 A3017 RMK A01 T01510022  RH  042%=      5-min Rain = 0
KPD2 171838Z 35008KT 15/02 A3017 RMK A01 T01530022  RH  041%=      5-min Rain = 0
KPD2 171839Z 36008G13KT 15/02 A3017 RMK A01 T01530021  RH  041%=      5-min Rain = 0
KPD2 171840Z 00010KT 15/02 A3017 RMK A01 T01520020  RH  041%=      5-min Rain = 0
KPD2 171841Z 35009KT 15/02 A3017 RMK A01 T01500020  RH  041%=      5-min Rain = 0
KPD2 171842Z 33005KT 15/02 A3017 RMK A01 T01540023  RH  041%=      5-min Rain = 0
KPD2 171843Z 35008KT 16/02 A3017 RMK A01 T01550021  RH  040%=      5-min Rain = 0
KPD2 171844Z 35011KT 16/02 A3017 RMK A01 T01560021  RH  040%=      5-min Rain = 0
KPD2 171845Z 01007KT 16/02 A3017 RMK A01 T01550021  RH  041%=      5-min Rain = 0
KPD2 171846Z 35005KT 15/02 A3016 RMK A01 T01530020  RH  041%=      5-min Rain = 0
KPD2 171847Z 34005KT 15/02 A3016 RMK A01 T01530021  RH  041%=      5-min Rain = 0
KPD2 171848Z 34006KT 15/02 A3016 RMK A01 T01540022  RH  041%=      5-min Rain = 0
KPD2 171849Z 32007KT 16/02 A3016 RMK A01 T01570023  RH  040%=      5-min Rain = 0
KPD2 171850Z 36007KT 16/02 A3016 RMK A01 T01600024  RH  040%=      5-min Rain = 0
KPD2 171851Z 03007KT 16/02 A3016 RMK A01 T01600021  RH  039%=      5-min Rain = 0
KPD2 171852Z 02003KT 16/02 A3016 RMK A01 T01560019  RH  039%=      5-min Rain = 0
KPD2 171853Z 33003KT 15/02 A3016 RMK A01 T01520018  RH  040%=      5-min Rain = 0
KPD2 171854Z 34010G15KT 15/02 A3016 RMK A01 T01510020  RH  041%=      5-min Rain = 0
KPD2 171855Z 33010KT 15/02 A3016 RMK A01 T01540021  RH  041%=      5-min Rain = 0
KPD2 171856Z 33009KT 15/02 A3016 RMK A01 T01540020  RH  040%=      5-min Rain = 0
KPD2 171857Z 32008KT 15/02 A3016 RMK A01 T01520019  RH  041%=      5-min Rain = 0
KPD2 171858Z 31005KT 15/02 A3016 RMK A01 T01510020  RH  041%=      5-min Rain = 0
KPD2 171859Z 34007KT 15/02 A3016 RMK A01 T01490018  RH  041%=      5-min Rain = 0
KPD2 171900Z 34009KT 15/02 A3016 RMK A01 T01490020  RH  042%=      5-min Rain = 0
KPD2 171901Z 00007KT 15/02 A3015 RMK A01 T01520020  RH  041%=      5-min Rain = 0
KPD2 171902Z 01004KT 15/02 A3015 RMK A01 T01530021  RH  041%=      5-min Rain = 0
KPD2 171903Z 32002KT 16/02 A3015 RMK A01 T01560021  RH  040%=      5-min Rain = 0
KPD2 171904Z 32005KT 16/02 A3015 RMK A01 T01560021  RH  040%=      5-min Rain = 0
KPD2 171905Z 35005KT 16/02 A3015 RMK A01 T01570020  RH  040%=      5-min Rain = 0
KPD2 171906Z 33009KT 16/02 A3015 RMK A01 T01560020  RH  040%=      5-min Rain = 0
KPD2 171907Z 33009KT 16/02 A3015 RMK A01 T01580019  RH  039%=      5-min Rain = 0
KPD2 171908Z 34009KT 16/02 A3015 RMK A01 T01580019  RH  039%=      5-min Rain = 0
KPD2 171909Z 33007KT 16/02 A3015 RMK A01 T01600019  RH  038%=      5-min Rain = 0
KPD2 171910Z 32004KT 16/02 A3015 RMK A01 T01600017  RH  038%=      5-min Rain = 0
KPD2 171911Z 34005KT 16/02 A3015 RMK A01 T01580017  RH  038%=      5-min Rain = 0
KPD2 171912Z 33004KT 16/02 A3015 RMK A01 T01570017  RH  039%=      5-min Rain = 0
KPD2 171913Z 31002KT 16/02 A3014 RMK A01 T01560018  RH  039%=      5-min Rain = 0
KPD2 171914Z 35005KT 16/02 A3014 RMK A01 T01550019  RH  040%=      5-min Rain = 0
KPD2 171915Z 34007KT 16/02 A3014 RMK A01 T01580022  RH  040%=      5-min Rain = 0
KPD2 171916Z 34007KT 16/02 A3014 RMK A01 T01610023  RH  039%=      5-min Rain = 0
KPD2 171917Z 04005KT 16/02 A3014 RMK A01 T01640023  RH  039%=      5-min Rain = 0
KPD2 171918Z 33005KT 16/02 A3014 RMK A01 T01640022  RH  038%=      5-min Rain = 0
KPD2 171919Z 01005KT 16/02 A3014 RMK A01 T01640021  RH  038%=      5-min Rain = 0
KPD2 171920Z 34005KT 16/02 A3014 RMK A01 T01630021  RH  038%=      5-min Rain = 0
KPD2 171921Z 36009KT 17/02 A3014 RMK A01 T01650023  RH  039%=      5-min Rain = 0
KPD2 171922Z 34006KT 17/02 A3014 RMK A01 T01650019  RH  037%=      5-min Rain = 0
KPD2 171923Z 00006KT 16/02 A3014 RMK A01 T01640020  RH  038%=      5-min Rain = 0
KPD2 171924Z 04005KT 17/02 A3013 RMK A01 T01650020  RH  038%=      5-min Rain = 0
KPD2 171925Z 33005KT 17/02 A3013 RMK A01 T01650019  RH  037%=      5-min Rain = 0
KPD2 171926Z 34009KT 17/02 A3013 RMK A01 T01650019  RH  037%=      5-min Rain = 0
KPD2 171927Z 33009KT 17/02 A3013 RMK A01 T01650019  RH  037%=      5-min Rain = 0
KPD2 171928Z 34006KT 16/02 A3013 RMK A01 T01640018  RH  037%=      5-min Rain = 0
KPD2 171929Z 34006KT 16/02 A3013 RMK A01 T01640018  RH  037%=      5-min Rain = 0
KPD2 171930Z 34010KT 16/02 A3013 RMK A01 T01620016  RH  037%=      5-min Rain = 0
KPD2 171931Z 35008KT 16/02 A3013 RMK A01 T01610019  RH  038%=      5-min Rain = 0
KPD2 171932Z 35007KT 16/02 A3013 RMK A01 T01620018  RH  038%=      5-min Rain = 0
KPD2 171933Z 33002KT 16/02 A3013 RMK A01 T01590015  RH  038%=      5-min Rain = 0
KPD2 171934Z 25000KT 16/01 A3013 RMK A01 T01550014  RH  038%=      5-min Rain = 0
KPD2 171935Z 04002KT 15/02 A3013 RMK A01 T01540015  RH  039%=      5-min Rain = 0
KPD2 171936Z 11001KT 16/02 A3013 RMK A01 T01550016  RH  039%=      5-min Rain = 0
KPD2 171937Z 35004KT 16/02 A3013 RMK A01 T01570018  RH  039%=      5-min Rain = 0
KPD2 171938Z 03006KT 16/02 A3012 RMK A01 T01620020  RH  038%=      5-min Rain = 0
KPD2 171939Z 35006KT 16/02 A3012 RMK A01 T01640019  RH  038%=      5-min Rain = 0
KPD2 171940Z 02005KT 16/02 A3012 RMK A01 T01630019  RH  038%=      5-min Rain = 0
KPD2 171941Z 04004KT 16/02 A3012 RMK A01 T01630019  RH  038%=      5-min Rain = 0
KPD2 171942Z 05002KT 16/02 A3012 RMK A01 T01620017  RH  038%=      5-min Rain = 0
KPD2 171943Z 02006KT 16/02 A3012 RMK A01 T01610018  RH  038%=      5-min Rain = 0
KPD2 171944Z 02004KT 16/02 A3012 RMK A01 T01610017  RH  038%=      5-min Rain = 0
KPD2 171945Z 36006G11KT 16/02 A3012 RMK A01 T01610016  RH  038%=      5-min Rain = 0
KPD2 171946Z 01008KT 16/02 A3012 RMK A01 T01630017  RH  038%=      5-min Rain = 0
KPD2 171947Z 03005KT 16/02 A3012 RMK A01 T01640017  RH  037%=      5-min Rain = 0
KPD2 171948Z 05003KT 16/02 A3012 RMK A01 T01630017  RH  037%=      5-min Rain = 0
KPD2 171949Z 08004KT 16/02 A3011 RMK A01 T01610016  RH  037%=      5-min Rain = 0
KPD2 171950Z 03004KT 16/02 A3011 RMK A01 T01600016  RH  038%=      5-min Rain = 0
KPD2 171951Z 05003KT 16/02 A3011 RMK A01 T01620017  RH  038%=      5-min Rain = 0
KPD2 171952Z 04003KT 16/02 A3011 RMK A01 T01630016  RH  037%=      5-min Rain = 0
KPD2 171953Z 35004KT 16/02 A3011 RMK A01 T01620017  RH  037%=      5-min Rain = 0
KPD2 171954Z 34004KT 17/02 A3011 RMK A01 T01650019  RH  037%=      5-min Rain = 0
KPD2 171955Z 34004G9KT 17/02 A3011 RMK A01 T01670019  RH  037%=      5-min Rain = 0
KPD2 171956Z 32007KT 17/02 A3011 RMK A01 T01680019  RH  036%=      5-min Rain = 0
KPD2 171957Z 31005KT 17/02 A3011 RMK A01 T01660016  RH  036%=      5-min Rain = 0
KPD2 171958Z 32005KT 16/02 A3011 RMK A01 T01620017  RH  037%=      5-min Rain = 0
KPD2 171959Z 31005KT 16/02 A3011 RMK A01 T01630018  RH  038%=      5-min Rain = 0
KPD2 172000Z 31008KT 16/02 A301 RMK A01 T01630018  RH  038%=      5-min Rain = 0
KPD2 172001Z 32007KT 17/02 A3011 RMK A01 T01660020  RH  037%=      5-min Rain = 0
KPD2 172002Z 33006KT 17/02 A3011 RMK A01 T01670019  RH  037%=      5-min Rain = 0
KPD2 172003Z 32005KT 17/02 A3011 RMK A01 T01670019  RH  037%=      5-min Rain = 0
KPD2 172004Z 30005KT 17/02 A3011 RMK A01 T01680019  RH  037%=      5-min Rain = 0
KPD2 172005Z 30005KT 17/02 A301 RMK A01 T01680018  RH  036%=      5-min Rain = 0
KPD2 172006Z 35005KT 17/02 A301 RMK A01 T01650016  RH  037%=      5-min Rain = 0
KPD2 172007Z 01002KT 16/02 A301 RMK A01 T01640016  RH  037%=      5-min Rain = 0
KPD2 172008Z 29005KT 16/02 A301 RMK A01 T01640016  RH  037%=      5-min Rain = 0
KPD2 172009Z 32008KT 16/02 A301 RMK A01 T01640016  RH  037%=      5-min Rain = 0
KPD2 172010Z 31011KT 17/02 A301 RMK A01 T01650015  RH  036%=      5-min Rain = 0
KPD2 172011Z 34012KT 16/01 A301 RMK A01 T01640014  RH  036%=      5-min Rain = 0
KPD2 172012Z 01005G10KT 16/01 A301 RMK A01 T01640014  RH  036%=      5-min Rain = 0
KPD2 172013Z 05002KT 17/02 A301 RMK A01 T01660016  RH  036%=      5-min Rain = 0
KPD2 172014Z 03003KT 17/01 A301 RMK A01 T01680014  RH  036%=      5-min Rain = 0
KPD2 172015Z 01003KT 17/01 A301 RMK A01 T01660014  RH  036%=      5-min Rain = 0
KPD2 172016Z 24003KT 17/01 A301 RMK A01 T01660012  RH  035%=      5-min Rain = 0
KPD2 172017Z 04004G9KT 16/01 A301 RMK A01 T01640011  RH  035%=      5-min Rain = 0
KPD2 172018Z 03006KT 16/01 A301 RMK A01 T01640014  RH  036%=      5-min Rain = 0
KPD2 172019Z 04008KT 17/02 A301 RMK A01 T01660015  RH  036%=      5-min Rain = 0
KPD2 172020Z 02003KT 17/02 A301 RMK A01 T01650016  RH  037%=      5-min Rain = 0
KPD2 172021Z 02004KT 16/02 A301 RMK A01 T01640016  RH  037%=      5-min Rain = 0
KPD2 172022Z 00003KT 17/02 A301 RMK A01 T01660016  RH  036%=      5-min Rain = 0
KPD2 172023Z 35003G9KT 17/02 A301 RMK A01 T01680016  RH  036%=      5-min Rain = 0
KPD2 172024Z 35009KT 17/02 A301 RMK A01 T01700018  RH  036%=      5-min Rain = 0
KPD2 172025Z 34007KT 17/02 A301 RMK A01 T01700016  RH  036%=      5-min Rain = 0
KPD2 172026Z 33006KT 17/02 A301 RMK A01 T01690016  RH  036%=      5-min Rain = 0
KPD2 172027Z 34003KT 17/02 A301 RMK A01 T01690016  RH  036%=      5-min Rain = 0
KPD2 172028Z 31004KT 17/02 A301 RMK A01 T01690016  RH  036%=      5-min Rain = 0
KPD2 172029Z 30004KT 17/01 A3009 RMK A01 T01690014  RH  035%=      5-min Rain = 0
KPD2 172030Z 29003KT 17/01 A3009 RMK A01 T01650009  RH  035%=      5-min Rain = 0
KPD2 172031Z 29001KT 16/01 A3009 RMK A01 T01620009  RH  036%=      5-min Rain = 0
KPD2 172032Z 24002KT 16/01 A3009 RMK A01 T01610011  RH  036%=      5-min Rain = 0
KPD2 172033Z 29002KT 16/01 A3009 RMK A01 T01620012  RH  036%=      5-min Rain = 0
KPD2 172034Z 30004KT 16/01 A3009 RMK A01 T01640013  RH  036%=      5-min Rain = 0
KPD2 172035Z 31005KT 17/01 A3009 RMK A01 T01650013  RH  036%=      5-min Rain = 0
KPD2 172036Z 33007KT 17/02 A3009 RMK A01 T01680016  RH  036%=      5-min Rain = 0
KPD2 172037Z 35008KT 17/02 A3009 RMK A01 T01720016  RH  035%=      5-min Rain = 0
KPD2 172038Z 35004KT 17/02 A3009 RMK A01 T01710016  RH  035%=      5-min Rain = 0
KPD2 172039Z 03005KT 17/02 A3009 RMK A01 T01720016  RH  035%=      5-min Rain = 0
KPD2 172040Z 07003KT 17/01 A3009 RMK A01 T01720013  RH  034%=      5-min Rain = 0
KPD2 172041Z 06001KT 17/01 A3009 RMK A01 T01700013  RH  035%=      5-min Rain = 0
KPD2 172042Z 30003KT 17/01 A3009 RMK A01 T01690012  RH  035%=      5-min Rain = 0
KPD2 172043Z 27002KT 17/01 A3009 RMK A01 T01680009  RH  034%=      5-min Rain = 0
KPD2 172044Z 30004KT 17/01 A3009 RMK A01 T01650008  RH  034%=      5-min Rain = 0
KPD2 172045Z 31007KT 16/01 A3009 RMK A01 T01640009  RH  035%=      5-min Rain = 0
KPD2 172046Z 31005KT 16/01 A3009 RMK A01 T01640009  RH  035%=      5-min Rain = 0
KPD2 172047Z 33008KT 17/01 A3009 RMK A01 T01670011  RH  035%=      5-min Rain = 0
KPD2 172048Z 33008KT 17/01 A3009 RMK A01 T01680007  RH  034%=      5-min Rain = 0
KPD2 172049Z 35008KT 17/01 A3009 RMK A01 T01690008  RH  034%=      5-min Rain = 0
KPD2 172050Z 34005KT 17/01 A3009 RMK A01 T01700008  RH  033%=      5-min Rain = 0
KPD2 172051Z 34006KT 17/01 A3009 RMK A01 T01700009  RH  034%=      5-min Rain = 0
KPD2 172052Z 00004KT 17/01 A3009 RMK A01 T01700011  RH  034%=      5-min Rain = 0
KPD2 172053Z 35004KT 17/02 A3009 RMK A01 T01720015  RH  035%=      5-min Rain = 0
KPD2 172054Z 00007KT 17/01 A3008 RMK A01 T01740014  RH  034%=      5-min Rain = 0
KPD2 172055Z 03005KT 18/01 A3008 RMK A01 T01750014  RH  034%=      5-min Rain = 0
KPD2 172056Z 03004KT 18/01 A3009 RMK A01 T01750013  RH  034%=      5-min Rain = 0
KPD2 172057Z 04003KT 17/01 A3008 RMK A01 T01720010  RH  034%=      5-min Rain = 0
KPD2 172058Z 33001KT 17/01 A3008 RMK A01 T01700010  RH  034%=      5-min Rain = 0
KPD2 172059Z 02001KT 17/01 A3008 RMK A01 T01690008  RH  034%=      5-min Rain = 0
KPD2 172100Z 05001KT 17/01 A3008 RMK A01 T01680009  RH  034%=      5-min Rain = 0
KPD2 172101Z 33002KT 17/01 A3008 RMK A01 T01670010  RH  034%=      5-min Rain = 0
KPD2 172102Z 32005KT 17/01 A3008 RMK A01 T01700011  RH  034%=      5-min Rain = 0
KPD2 172103Z 35005KT 17/01 A3008 RMK A01 T01720011  RH  034%=      5-min Rain = 0
KPD2 172104Z 05004KT 18/01 A3008 RMK A01 T01750011  RH  033%=      5-min Rain = 0
KPD2 172105Z 01003KT 18/01 A3008 RMK A01 T01770010  RH  033%=      5-min Rain = 0
KPD2 172106Z 34005KT 18/01 A3008 RMK A01 T01760010  RH  033%=      5-min Rain = 0
KPD2 172107Z 04003KT 17/01 A3008 RMK A01 T01740009  RH  033%=      5-min Rain = 0
KPD2 172108Z 30005KT 17/01 A3008 RMK A01 T01730008  RH  033%=      5-min Rain = 0
KPD2 172109Z 33006KT 17/01 A3008 RMK A01 T01710006  RH  033%=      5-min Rain = 0
KPD2 172110Z 32004KT 17/00 A3008 RMK A01 T01700003  RH  032%=      5-min Rain = 0
KPD2 172111Z 31005KT 17/00 A3008 RMK A01 T01690003  RH  032%=      5-min Rain = 0
KPD2 172112Z 32003KT 17/00 A3008 RMK A01 T01670003  RH  033%=      5-min Rain = 0
KPD2 172113Z 33006KT 17/00 A3008 RMK A01 T01670003  RH  033%=      5-min Rain = 0
KPD2 172114Z 35006KT 17/00 A3008 RMK A01 T01680004  RH  033%=      5-min Rain = 0
KPD2 172115Z 35005KT 17/01 A3008 RMK A01 T01720006  RH  033%=      5-min Rain = 0
KPD2 172116Z 33004KT 17/01 A3008 RMK A01 T01740007  RH  032%=      5-min Rain = 0
KPD2 172117Z 00003KT 17/01 A3008 RMK A01 T01740006  RH  032%=      5-min Rain = 0
KPD2 172118Z 02002KT 17/01 A3008 RMK A01 T01710005  RH  032%=      5-min Rain = 0
KPD2 172119Z 01002KT 17/01 A3008 RMK A01 T01700005  RH  033%=      5-min Rain = 0
KPD2 172120Z 33004KT 17/01 A3008 RMK A01 T01690005  RH  033%=      5-min Rain = 0
KPD2 172121Z 34005KT 17/00 A3008 RMK A01 T01690003  RH  032%=      5-min Rain = 0
KPD2 172122Z 34006KT 17/01 A3008 RMK A01 T01700005  RH  033%=      5-min Rain = 0
KPD2 172123Z 02003KT 17/01 A3008 RMK A01 T01700007  RH  033%=      5-min Rain = 0
KPD2 172124Z 33003KT 17/01 A3008 RMK A01 T01710007  RH  033%=      5-min Rain = 0
KPD2 172125Z 35005KT 17/01 A3008 RMK A01 T01720006  RH  033%=      5-min Rain = 0
KPD2 172126Z 36002KT 17/00 A3008 RMK A01 T01720004  RH  032%=      5-min Rain = 0
KPD2 172127Z 00000KT 17/00 A3008 RMK A01 T01700004  RH  032%=      5-min Rain = 0
KPD2 172128Z 12001KT 17/01 A3008 RMK A01 T01700005  RH  033%=      5-min Rain = 0
KPD2 172129Z 33001KT 17/00 A3008 RMK A01 T01700004  RH  032%=      5-min Rain = 0
KPD2 172130Z 35001KT 17/00 A3008 RMK A01 T01710003  RH  032%=      5-min Rain = 0
KPD2 172131Z 08002KT 17/00 A3008 RMK A01 T01720004  RH  032%=      5-min Rain = 0
KPD2 172132Z 02004KT 17/00 A3008 RMK A01 T01730003  RH  032%=      5-min Rain = 0
KPD2 172133Z 01006KT 17/00 A3008 RMK A01 T01730004  RH  032%=      5-min Rain = 0
KPD2 172134Z 01006KT 17/00 A3008 RMK A01 T01730003  RH  032%=      5-min Rain = 0
KPD2 172135Z 01005KT 17/00 A3008 RMK A01 T01730002  RH  031%=      5-min Rain = 0
KPD2 172136Z 02004KT 17/00 A3008 RMK A01 T01740002  RH  031%=      5-min Rain = 0
KPD2 172137Z 02005KT 17/00 A3008 RMK A01 T01740004  RH  032%=      5-min Rain = 0
KPD2 172138Z 01003KT 17/00 A3008 RMK A01 T01740002  RH  031%=      5-min Rain = 0
KPD2 172139Z 03003KT 17/00 A3008 RMK A01 T01720001  RH  031%=      5-min Rain = 0
KPD2 172140Z 04003KT 17/00 A3008 RMK A01 T01710001  RH  031%=      5-min Rain = 0
KPD2 172141Z 06003KT 17/00 A3008 RMK A01 T01690001  RH  032%=      5-min Rain = 0
KPD2 172142Z 11002KT 17/00 A3007 RMK A01 T01670001  RH  032%=      5-min Rain = 0
KPD2 172143Z 05004KT 17/00 A3007 RMK A01 T01670003  RH  033%=      5-min Rain = 0
KPD2 172144Z 04005KT 17/00 A3007 RMK A01 T01690004  RH  033%=      5-min Rain = 0
KPD2 172145Z 02007KT 17/00 A3007 RMK A01 T01680004  RH  033%=      5-min Rain = 0
KPD2 172146Z 04007KT 17/00 A3007 RMK A01 T01680004  RH  033%=      5-min Rain = 0
KPD2 172147Z 04004KT 17/00 A3007 RMK A01 T01680004  RH  033%=      5-min Rain = 0
KPD2 172148Z 03004KT 17/00 A3007 RMK A01 T01660003  RH  033%=      5-min Rain = 0
KPD2 172149Z 03003KT 17/00 A3007 RMK A01 T01660003  RH  033%=      5-min Rain = 0
KPD2 172150Z 33005KT 17/00 A3008 RMK A01 T01660004  RH  033%=      5-min Rain = 0
KPD2 172151Z 34007KT 17/00 A3008 RMK A01 T01670003  RH  033%=      5-min Rain = 0
KPD2 172152Z 33006KT 17/00 A3008 RMK A01 T01680003  RH  033%=      5-min Rain = 0
KPD2 172153Z 33006KT 17/00 A3008 RMK A01 T01680001  RH  032%=      5-min Rain = 0
KPD2 172154Z 33005KT 17/00 A3008 RMK A01 T01680000  RH  032%=      5-min Rain = 0
KPD2 172155Z 35007KT 17/M00 A3008 RMK A01 T01671001  RH  032%=      5-min Rain = 0
KPD2 172156Z 35006KT 17/00 A3008 RMK A01 T01670001  RH  032%=      5-min Rain = 0
KPD2 172157Z 33005KT 17/00 A3008 RMK A01 T01690002  RH  032%=      5-min Rain = 0
KPD2 172158Z 34005KT 17/00 A3008 RMK A01 T01690002  RH  032%=      5-min Rain = 0
KPD2 172159Z 36005KT 17/00 A3008 RMK A01 T01690003  RH  032%=      5-min Rain = 0
KPD2 172200Z 34004KT 17/00 A3008 RMK A01 T01700004  RH  033%=      5-min Rain = 0
KPD2 172201Z 34002KT 17/00 A3008 RMK A01 T01700004  RH  032%=      5-min Rain = 0
KPD2 172202Z 34003KT 17/00 A3008 RMK A01 T01690003  RH  032%=      5-min Rain = 0
KPD2 172203Z 32004KT 17/01 A3008 RMK A01 T01710005  RH  033%=      5-min Rain = 0
KPD2 172204Z 32004KT 17/00 A3008 RMK A01 T01710004  RH  032%=      5-min Rain = 0
KPD2 172205Z 31003KT 17/00 A3008 RMK A01 T01700002  RH  032%=      5-min Rain = 0
KPD2 172206Z 29003KT 17/00 A3008 RMK A01 T01670001  RH  032%=      5-min Rain = 0
KPD2 172207Z 28001KT 17/00 A3008 RMK A01 T01660002  RH  033%=      5-min Rain = 0
KPD2 172208Z 29000KT 17/00 A3008 RMK A01 T01660003  RH  033%=      5-min Rain = 0
KPD2 172209Z 00002KT 17/00 A3008 RMK A01 T01670004  RH  033%=      5-min Rain = 0
KPD2 172210Z 02002KT 17/01 A3008 RMK A01 T01690005  RH  033%=      5-min Rain = 0
KPD2 172211Z 34001KT 17/00 A3008 RMK A01 T01700004  RH  032%=      5-min Rain = 0
KPD2 172212Z 28001KT 17/00 A3008 RMK A01 T01690003  RH  032%=      5-min Rain = 0
KPD2 172213Z 23001KT 17/00 A3008 RMK A01 T01680003  RH  033%=      5-min Rain = 0
KPD2 172214Z 26001KT 17/00 A3008 RMK A01 T01680004  RH  033%=      5-min Rain = 0
KPD2 172215Z 07001KT 17/00 A3008 RMK A01 T01680004  RH  033%=      5-min Rain = 0
KPD2 172216Z 15003KT 17/01 A3008 RMK A01 T01690005  RH  033%=      5-min Rain = 0
KPD2 172217Z 21006KT 17/01 A3008 RMK A01 T01690005  RH  033%=      5-min Rain = 0
KPD2 172218Z 25004KT 17/01 A3008 RMK A01 T01690006  RH  033%=      5-min Rain = 0
KPD2 172219Z 29003KT 17/01 A3008 RMK A01 T01700007  RH  033%=      5-min Rain = 0
KPD2 172220Z 30003KT 17/01 A3008 RMK A01 T01700007  RH  033%=      5-min Rain = 0
KPD2 172221Z 29002KT 17/01 A3008 RMK A01 T01690005  RH  033%=      5-min Rain = 0
KPD2 172222Z 30001KT 17/01 A3008 RMK A01 T01690006  RH  033%=      5-min Rain = 0
KPD2 172223Z 31002KT 17/01 A3008 RMK A01 T01690006  RH  033%=      5-min Rain = 0
KPD2 172224Z 18001KT 17/01 A3008 RMK A01 T01690006  RH  033%=      5-min Rain = 0
KPD2 172225Z 18002KT 17/01 A3008 RMK A01 T01690008  RH  034%=      5-min Rain = 0
KPD2 172226Z 22003KT 17/01 A3008 RMK A01 T01690008  RH  034%=      5-min Rain = 0
KPD2 172227Z 21003KT 17/01 A3008 RMK A01 T01690007  RH  034%=      5-min Rain = 0
KPD2 172228Z 21003KT 17/01 A3008 RMK A01 T01670007  RH  034%=      5-min Rain = 0
KPD2 172229Z 22002KT 17/01 A3008 RMK A01 T01660008  RH  034%=      5-min Rain = 0
KPD2 172230Z 23002KT 17/01 A3008 RMK A01 T01660008  RH  034%=      5-min Rain = 0
KPD2 172231Z 24003KT 17/01 A3008 RMK A01 T01660009  RH  035%=      5-min Rain = 0
KPD2 172232Z 24003KT 17/01 A3008 RMK A01 T01660008  RH  034%=      5-min Rain = 0
KPD2 172233Z 25004KT 17/01 A3008 RMK A01 T01650008  RH  034%=      5-min Rain = 0
KPD2 172234Z 26003KT 17/01 A3008 RMK A01 T01660006  RH  034%=      5-min Rain = 0
KPD2 172235Z 27003KT 17/00 A3008 RMK A01 T01660004  RH  033%=      5-min Rain = 0
KPD2 172236Z 28003KT 17/00 A3008 RMK A01 T01660004  RH  033%=      5-min Rain = 0
KPD2 172237Z 28003KT 17/00 A3008 RMK A01 T01650003  RH  033%=      5-min Rain = 0
KPD2 172238Z 28003KT 17/00 A3008 RMK A01 T01650003  RH  033%=      5-min Rain = 0
KPD2 172239Z 26003KT 16/00 A3008 RMK A01 T01640003  RH  033%=      5-min Rain = 0
KPD2 172240Z 27003KT 16/00 A3008 RMK A01 T01640003  RH  033%=      5-min Rain = 0
KPD2 172241Z 29002KT 17/00 A3008 RMK A01 T01650003  RH  033%=      5-min Rain = 0
KPD2 172242Z 28003KT 17/00 A3008 RMK A01 T01650002  RH  033%=      5-min Rain = 0
KPD2 172243Z 26003KT 16/00 A3008 RMK A01 T01640001  RH  033%=      5-min Rain = 0
KPD2 172244Z 27002KT 16/00 A3008 RMK A01 T01640002  RH  033%=      5-min Rain = 0
KPD2 172245Z 28002KT 16/00 A3008 RMK A01 T01640002  RH  033%=      5-min Rain = 0
KPD2 172246Z 25002KT 16/00 A3008 RMK A01 T01640002  RH  033%=      5-min Rain = 0
KPD2 172247Z 25002KT 16/00 A3008 RMK A01 T01630003  RH  034%=      5-min Rain = 0
KPD2 172248Z 23001KT 16/00 A3008 RMK A01 T01630003  RH  034%=      5-min Rain = 0
KPD2 172249Z 24001KT 16/00 A3008 RMK A01 T01620003  RH  034%=      5-min Rain = 0
KPD2 172250Z 28002KT 16/00 A3008 RMK A01 T01620004  RH  034%=      5-min Rain = 0
KPD2 172251Z 27000KT 16/00 A3008 RMK A01 T01620003  RH  034%=      5-min Rain = 0
KPD2 172252Z 23001KT 16/00 A3008 RMK A01 T01620004  RH  034%=      5-min Rain = 0
KPD2 172253Z 23002KT 16/01 A3008 RMK A01 T01610006  RH  035%=      5-min Rain = 0
KPD2 172254Z 22001KT 16/01 A3008 RMK A01 T01610006  RH  035%=      5-min Rain = 0
KPD2 172255Z 24002KT 16/01 A3008 RMK A01 T01610005  RH  035%=      5-min Rain = 0
KPD2 172256Z 25003KT 16/01 A3008 RMK A01 T01600005  RH  035%=      5-min Rain = 0
KPD2 172257Z 23002KT 16/00 A3008 RMK A01 T01590004  RH  035%=      5-min Rain = 0
KPD2 172258Z 26003KT 16/00 A3008 RMK A01 T01580004  RH  035%=      5-min Rain = 0
KPD2 172259Z 24003KT 16/00 A3008 RMK A01 T01580004  RH  035%=      5-min Rain = 0
KPD2 172300Z 25002KT 16/00 A3008 RMK A01 T01580004  RH  035%=      5-min Rain = 0
KPD2 172301Z 26002KT 16/00 A3008 RMK A01 T01580004  RH  035%=      5-min Rain = 0
KPD2 172302Z 25002KT 16/01 A3008 RMK A01 T01580005  RH  035%=      5-min Rain = 0
KPD2 172303Z 26003KT 16/00 A3008 RMK A01 T01570004  RH  035%=      5-min Rain = 0
KPD2 172304Z 26003KT 16/00 A3008 RMK A01 T01560004  RH  035%=      5-min Rain = 0
KPD2 172305Z 26002KT 16/00 A3008 RMK A01 T01550004  RH  036%=      5-min Rain = 0
KPD2 172306Z 26002KT 15/00 A3008 RMK A01 T01540004  RH  036%=      5-min Rain = 0
KPD2 172307Z 26002KT 15/00 A3008 RMK A01 T01520003  RH  036%=      5-min Rain = 0
KPD2 172308Z 26001KT 15/00 A3008 RMK A01 T01510003  RH  037%=      5-min Rain = 0
KPD2 172309Z 29001KT 15/00 A3008 RMK A01 T01490003  RH  037%=      5-min Rain = 0
KPD2 172310Z 30001KT 15/00 A3008 RMK A01 T01480003  RH  037%=      5-min Rain = 0
KPD2 172311Z 29001KT 15/00 A3008 RMK A01 T01470003  RH  037%=      5-min Rain = 0
KPD2 172312Z 28000KT 15/00 A3008 RMK A01 T01460003  RH  038%=      5-min Rain = 0
KPD2 172313Z 00000KT 15/00 A3008 RMK A01 T01450004  RH  038%=      5-min Rain = 0
KPD2 172314Z 00000KT 15/01 A3008 RMK A01 T01450005  RH  038%=      5-min Rain = 0
KPD2 172315Z 00000KT 14/01 A3008 RMK A01 T01440005  RH  039%=      5-min Rain = 0
KPD2 172316Z 28000KT 14/01 A3008 RMK A01 T01430006  RH  039%=      5-min Rain = 0
KPD2 172317Z 25001KT 14/00 A3008 RMK A01 T01410004  RH  039%=      5-min Rain = 0
KPD2 172318Z 25000KT 14/01 A3008 RMK A01 T01410005  RH  039%=      5-min Rain = 0
KPD2 172319Z 25000KT 14/00 A3008 RMK A01 T01400004  RH  040%=      5-min Rain = 0
KPD2 172320Z 25000KT 14/01 A3008 RMK A01 T01390005  RH  040%=      5-min Rain = 0
KPD2 172321Z 27000KT 14/01 A3008 RMK A01 T01390005  RH  040%=      5-min Rain = 0
KPD2 172322Z 30001KT 14/01 A3008 RMK A01 T01380005  RH  040%=      5-min Rain = 0
KPD2 172323Z 30001KT 14/01 A3008 RMK A01 T01380005  RH  040%=      5-min Rain = 0
KPD2 172324Z 31000KT 14/00 A3008 RMK A01 T01370004  RH  040%=      5-min Rain = 0
KPD2 172325Z 30001KT 14/00 A3008 RMK A01 T01370004  RH  040%=      5-min Rain = 0
KPD2 172326Z 31001KT 14/00 A3008 RMK A01 T01370004  RH  040%=      5-min Rain = 0
KPD2 172327Z 32001KT 14/00 A3008 RMK A01 T01370004  RH  040%=      5-min Rain = 0
KPD2 172328Z 32001KT 14/01 A3008 RMK A01 T01360005  RH  040%=      5-min Rain = 0
KPD2 172329Z 30001KT 14/01 A3008 RMK A01 T01360005  RH  041%=      5-min Rain = 0
KPD2 172330Z 31001KT 14/00 A3008 RMK A01 T01360004  RH  041%=      5-min Rain = 0
KPD2 172331Z 31001KT 14/01 A3008 RMK A01 T01360005  RH  041%=      5-min Rain = 0
KPD2 172332Z 31000KT 14/00 A3008 RMK A01 T01350004  RH  041%=      5-min Rain = 0
KPD2 172333Z 31001KT 14/00 A3008 RMK A01 T01350004  RH  041%=      5-min Rain = 0
KPD2 172334Z 32001KT 13/00 A3008 RMK A01 T01340004  RH  041%=      5-min Rain = 0
KPD2 172335Z 35002KT 13/00 A3008 RMK A01 T01330003  RH  041%=      5-min Rain = 0
KPD2 172336Z 00002KT 13/00 A3008 RMK A01 T01320003  RH  041%=      5-min Rain = 0
KPD2 172337Z 36002KT 13/00 A3008 RMK A01 T01310004  RH  042%=      5-min Rain = 0
KPD2 172338Z 34002KT 13/01 A3009 RMK A01 T01310005  RH  042%=      5-min Rain = 0
KPD2 172339Z 34002KT 13/01 A3009 RMK A01 T01300005  RH  042%=      5-min Rain = 0
KPD2 172340Z 33002KT 13/01 A3009 RMK A01 T01290005  RH  042%=      5-min Rain = 0
KPD2 172341Z 33002KT 13/00 A3009 RMK A01 T01280004  RH  043%=      5-min Rain = 0
KPD2 172342Z 33002KT 13/00 A3009 RMK A01 T01280004  RH  043%=      5-min Rain = 0
KPD2 172343Z 33001KT 13/01 A3008 RMK A01 T01270005  RH  043%=      5-min Rain = 0
KPD2 172344Z 34001KT 13/00 A3008 RMK A01 T01260004  RH  043%=      5-min Rain = 0
KPD2 172345Z 35002KT 13/00 A3008 RMK A01 T01250004  RH  043%=      5-min Rain = 0
KPD2 172346Z 35002KT 13/00 A3008 RMK A01 T01250004  RH  044%=      5-min Rain = 0
KPD2 172347Z 35002KT 12/00 A3008 RMK A01 T01240004  RH  044%=      5-min Rain = 0
KPD2 172348Z 35002KT 12/00 A3008 RMK A01 T01240004  RH  044%=      5-min Rain = 0
KPD2 172349Z 35002KT 12/01 A3008 RMK A01 T01240005  RH  044%=      5-min Rain = 0
KPD2 172350Z 35002KT 12/01 A3008 RMK A01 T01240005  RH  044%=      5-min Rain = 0
KPD2 172351Z 35001KT 12/00 A3008 RMK A01 T01230004  RH  044%=      5-min Rain = 0
KPD2 172352Z 35001KT 12/00 A3008 RMK A01 T01220004  RH  044%=      5-min Rain = 0
KPD2 172353Z 35001KT 12/00 A3008 RMK A01 T01200004  RH  045%=      5-min Rain = 0
KPD2 172354Z 35000KT 12/00 A3008 RMK A01 T01190004  RH  045%=      5-min Rain = 0
KPD2 172355Z 00000KT 12/00 A3008 RMK A01 T01190004  RH  045%=      5-min Rain = 0
KPD2 172356Z 00000KT 12/00 A3008 RMK A01 T01180004  RH  045%=      5-min Rain = 0
KPD2 172357Z 00000KT 12/00 A3008 RMK A01 T01180004  RH  045%=      5-min Rain = 0
KPD2 172358Z 35000KT 12/00 A3008 RMK A01 T01180004  RH  045%=      5-min Rain = 0
KPD2 172359Z 35000KT 12/00 A3008 RMK A01 T01180004  RH  045%=      5-min Rain = 0
KPD2 180000Z 00000KT 12/00 A3008 RMK A01 T01180004  RH  045%=      5-min Rain = 0
KPD2 180001Z 35000KT 12/01 A3008 RMK A01 T01180005  RH  046%=      5-min Rain = 0
KPD2 180002Z 35001KT 12/00 A3008 RMK A01 T01180004  RH  046%=      5-min Rain = 0
KPD2 180003Z 35001KT 12/00 A3008 RMK A01 T01180004  RH  045%=      5-min Rain = 0
KPD2 180004Z 00000KT 12/00 A3008 RMK A01 T01170003  RH  045%=      5-min Rain = 0
KPD2 180005Z 00000KT 12/00 A3008 RMK A01 T01170004  RH  046%=      5-min Rain = 0
KPD2 180006Z 00000KT 12/00 A3008 RMK A01 T01160004  RH  046%=      5-min Rain = 0
KPD2 180007Z 00000KT 12/00 A3008 RMK A01 T01160004  RH  046%=      5-min Rain = 0
KPD2 180008Z 00000KT 12/00 A3008 RMK A01 T01150003  RH  046%=      5-min Rain = 0
KPD2 180009Z 00000KT 11/00 A3008 RMK A01 T01140003  RH  046%=      5-min Rain = 0
KPD2 180010Z 00000KT 11/00 A3008 RMK A01 T01140003  RH  046%=      5-min Rain = 0
KPD2 180011Z 00000KT 11/00 A3008 RMK A01 T01130003  RH  047%=      5-min Rain = 0
KPD2 180012Z 00000KT 11/00 A3008 RMK A01 T01130004  RH  047%=      5-min Rain = 0
KPD2 180013Z 00000KT 11/00 A3008 RMK A01 T01120004  RH  047%=      5-min Rain = 0
KPD2 180014Z 00000KT 11/00 A3008 RMK A01 T01120003  RH  047%=      5-min Rain = 0
KPD2 180015Z 00000KT 11/00 A3008 RMK A01 T01110003  RH  047%=      5-min Rain = 0
KPD2 180016Z 00000KT 11/00 A3008 RMK A01 T01100003  RH  047%=      5-min Rain = 0
KPD2 180017Z 00000KT 11/00 A3008 RMK A01 T01090002  RH  047%=      5-min Rain = 0
KPD2 180018Z 00000KT 11/00 A3008 RMK A01 T01080002  RH  048%=      5-min Rain = 0
KPD2 180019Z 00000KT 11/00 A3008 RMK A01 T01070002  RH  048%=      5-min Rain = 0
KPD2 180020Z 32000KT 11/00 A3008 RMK A01 T01060003  RH  049%=      5-min Rain = 0
KPD2 180021Z 32002KT 11/00 A3008 RMK A01 T01050003  RH  049%=      5-min Rain = 0
KPD2 180022Z 32001KT 10/00 A3008 RMK A01 T01040003  RH  050%=      5-min Rain = 0
KPD2 180023Z 00000KT 10/00 A3008 RMK A01 T01020002  RH  050%=      5-min Rain = 0
KPD2 180024Z 32001KT 10/00 A3008 RMK A01 T01010002  RH  050%=      5-min Rain = 0
KPD2 180025Z 32001KT 10/00 A3008 RMK A01 T01000002  RH  051%=      5-min Rain = 0
KPD2 180026Z 32001KT 10/00 A3008 RMK A01 T01000002  RH  051%=      5-min Rain = 0
KPD2 180027Z 32001KT 10/00 A3008 RMK A01 T00990003  RH  051%=      5-min Rain = 0
KPD2 180028Z 30002KT 10/00 A3008 RMK A01 T00990003  RH  051%=      5-min Rain = 0
KPD2 180029Z 29002KT 10/00 A3008 RMK A01 T00990002  RH  051%=      5-min Rain = 0
KPD2 180030Z 29002KT 10/00 A3008 RMK A01 T00990002  RH  051%=      5-min Rain = 0
KPD2 180031Z 29002KT 10/00 A3008 RMK A01 T00990002  RH  051%=      5-min Rain = 0
KPD2 180032Z 28002KT 10/00 A3008 RMK A01 T00980002  RH  051%=      5-min Rain = 0
KPD2 180033Z 27002KT 10/00 A3008 RMK A01 T00980002  RH  051%=      5-min Rain = 0
KPD2 180034Z 27002KT 10/00 A3008 RMK A01 T00980003  RH  052%=      5-min Rain = 0
KPD2 180035Z 27002KT 10/00 A3008 RMK A01 T00980003  RH  052%=      5-min Rain = 0
KPD2 180036Z 27002KT 10/00 A3009 RMK A01 T00980003  RH  052%=      5-min Rain = 0
KPD2 180037Z 26002KT 10/00 A3009 RMK A01 T00980002  RH  051%=      5-min Rain = 0
KPD2 180038Z 26002KT 10/00 A3009 RMK A01 T00980002  RH  051%=      5-min Rain = 0
KPD2 180039Z 26002KT 10/00 A3009 RMK A01 T00970002  RH  052%=      5-min Rain = 0
KPD2 180040Z 26001KT 10/00 A3009 RMK A01 T00960003  RH  052%=      5-min Rain = 0
KPD2 180041Z 26001KT 10/00 A3009 RMK A01 T00960004  RH  052%=      5-min Rain = 0
KPD2 180042Z 00000KT 10/00 A3009 RMK A01 T00960003  RH  053%=      5-min Rain = 0
KPD2 180043Z 00000KT 10/00 A3009 RMK A01 T00960004  RH  053%=      5-min Rain = 0
KPD2 180044Z 00000KT 10/00 A3009 RMK A01 T00950004  RH  053%=      5-min Rain = 0
KPD2 180045Z 00000KT 10/00 A3009 RMK A01 T00960004  RH  053%=      5-min Rain = 0
KPD2 180046Z 00000KT 10/00 A3009 RMK A01 T00950004  RH  053%=      5-min Rain = 0
KPD2 180047Z 26000KT 10/00 A3009 RMK A01 T00960004  RH  053%=      5-min Rain = 0
KPD2 180048Z 26001KT 10/00 A3009 RMK A01 T00960004  RH  053%=      5-min Rain = 0
KPD2 180049Z 26001KT 10/00 A3009 RMK A01 T00950003  RH  053%=      5-min Rain = 0
KPD2 180050Z 26001KT 10/00 A3009 RMK A01 T00950003  RH  053%=      5-min Rain = 0
KPD2 180051Z 26000KT 09/00 A3009 RMK A01 T00940003  RH  053%=      5-min Rain = 0
KPD2 180052Z 26000KT 09/00 A3009 RMK A01 T00930003  RH  053%=      5-min Rain = 0
KPD2 180053Z 26001KT 09/00 A3009 RMK A01 T00920002  RH  053%=      5-min Rain = 0
KPD2 180054Z 25002KT 09/00 A3009 RMK A01 T00920003  RH  054%=      5-min Rain = 0
KPD2 180055Z 26002KT 09/00 A3009 RMK A01 T00910003  RH  054%=      5-min Rain = 0
KPD2 180056Z 26002KT 09/00 A3009 RMK A01 T00910004  RH  054%=      5-min Rain = 0
KPD2 180057Z 26001KT 09/00 A3009 RMK A01 T00910003  RH  054%=      5-min Rain = 0
KPD2 180058Z 26001KT 09/00 A3009 RMK A01 T00910003  RH  054%=      5-min Rain = 0
KPD2 180059Z 25000KT 09/00 A3009 RMK A01 T00910003  RH  054%=      5-min Rain = 0
KPD2 180100Z 13001KT 09/00 A3009 RMK A01 T00910002  RH  054%=      5-min Rain = 0
KPD2 180101Z 13001KT 09/00 A3009 RMK A01 T00910001  RH  053%=      5-min Rain = 0
KPD2 180102Z 00000KT 09/00 A301 RMK A01 T00910001  RH  053%=      5-min Rain = 0
KPD2 180103Z 00000KT 09/00 A301 RMK A01 T00910002  RH  054%=      5-min Rain = 0
KPD2 180104Z 13000KT 09/00 A301 RMK A01 T00920003  RH  054%=      5-min Rain = 0
KPD2 180105Z 00000KT 09/00 A301 RMK A01 T00930004  RH  054%=      5-min Rain = 0
KPD2 180106Z 00000KT 09/00 A301 RMK A01 T00930004  RH  053%=      5-min Rain = 0
KPD2 180107Z 00000KT 09/00 A301 RMK A01 T00930002  RH  053%=      5-min Rain = 0
KPD2 180108Z 00000KT 09/00 A3009 RMK A01 T00920001  RH  053%=      5-min Rain = 0
KPD2 180109Z 00000KT 09/00 A301 RMK A01 T00900001  RH  053%=      5-min Rain = 0
KPD2 180110Z 15000KT 09/00 A301 RMK A01 T00890000  RH  054%=      5-min Rain = 0
KPD2 180111Z 15001KT 09/00 A301 RMK A01 T008800-0  RH  054%=      5-min Rain = 0
KPD2 180112Z 15001KT 09/00 A301 RMK A01 T00870000  RH  054%=      5-min Rain = 0
KPD2 180113Z 15001KT 09/00 A301 RMK A01 T00860000  RH  055%=      5-min Rain = 0
KPD2 180114Z 15001KT 09/00 A301 RMK A01 T00850002  RH  056%=      5-min Rain = 0
KPD2 180115Z 15001KT 09/00 A301 RMK A01 T00850002  RH  056%=      5-min Rain = 0
KPD2 180116Z 15001KT 09/00 A301 RMK A01 T00850001  RH  056%=      5-min Rain = 0
KPD2 180117Z 15000KT 09/00 A301 RMK A01 T00850002  RH  056%=      5-min Rain = 0
KPD2 180118Z 00000KT 09/00 A301 RMK A01 T00850002  RH  056%=      5-min Rain = 0
KPD2 180119Z 00000KT 09/00 A301 RMK A01 T00850002  RH  056%=      5-min Rain = 0
KPD2 180120Z 00000KT 09/00 A301 RMK A01 T00850003  RH  056%=      5-min Rain = 0
KPD2 180121Z 13000KT 09/00 A301 RMK A01 T00850002  RH  056%=      5-min Rain = 0
KPD2 180122Z 13001KT 08/00 A301 RMK A01 T00840001  RH  056%=      5-min Rain = 0
KPD2 180123Z 13001KT 08/00 A301 RMK A01 T00840002  RH  056%=      5-min Rain = 0
KPD2 180124Z 13001KT 08/00 A301 RMK A01 T00830002  RH  056%=      5-min Rain = 0
KPD2 180125Z 13001KT 08/00 A301 RMK A01 T00830001  RH  056%=      5-min Rain = 0
KPD2 180126Z 13001KT 08/00 A301 RMK A01 T00830001  RH  057%=      5-min Rain = 0
KPD2 180127Z 13001KT 08/00 A301 RMK A01 T00830002  RH  057%=      5-min Rain = 0
KPD2 180128Z 16001KT 08/00 A301 RMK A01 T00840003  RH  057%=      5-min Rain = 0
KPD2 180129Z 28002KT 08/00 A301 RMK A01 T00840002  RH  056%=      5-min Rain = 0
KPD2 180130Z 28002KT 08/00 A301 RMK A01 T00840003  RH  056%=      5-min Rain = 0
KPD2 180131Z 28001KT 09/00 A301 RMK A01 T00850003  RH  056%=      5-min Rain = 0
KPD2 180132Z 28001KT 09/00 A301 RMK A01 T00850002  RH  056%=      5-min Rain = 0
KPD2 180133Z 28001KT 09/00 A301 RMK A01 T00850002  RH  056%=      5-min Rain = 0
KPD2 180134Z 28001KT 08/00 A301 RMK A01 T00840000  RH  056%=      5-min Rain = 0
KPD2 180135Z 28002KT 08/M00 A301 RMK A01 T00821003  RH  055%=      5-min Rain = 0
KPD2 180136Z 28002KT 08/M00 A301 RMK A01 T00801004  RH  055%=      5-min Rain = 0
KPD2 180137Z 28001KT 08/M00 A301 RMK A01 T00781002  RH  057%=      5-min Rain = 0
KPD2 180138Z 28001KT 08/M00 A301 RMK A01 T00771001  RH  058%=      5-min Rain = 0
KPD2 180139Z 28001KT 08/00 A301 RMK A01 T007500-0  RH  059%=      5-min Rain = 0
KPD2 180140Z 28001KT 08/00 A301 RMK A01 T007500-0  RH  059%=      5-min Rain = 0
KPD2 180141Z 28001KT 07/00 A301 RMK A01 T007400-0  RH  059%=      5-min Rain = 0
KPD2 180142Z 28001KT 07/M00 A301 RMK A01 T00731001  RH  060%=      5-min Rain = 0
KPD2 180143Z 28001KT 07/M00 A301 RMK A01 T00721001  RH  060%=      5-min Rain = 0
KPD2 180144Z 29001KT 07/M00 A301 RMK A01 T00711001  RH  060%=      5-min Rain = 0
KPD2 180145Z 29001KT 07/M00 A301 RMK A01 T00701001  RH  060%=      5-min Rain = 0
KPD2 180146Z 29001KT 07/00 A301 RMK A01 T007000-0  RH  061%=      5-min Rain = 0
KPD2 180147Z 29001KT 07/00 A301 RMK A01 T006900-0  RH  061%=      5-min Rain = 0
KPD2 180148Z 29001KT 07/00 A301 RMK A01 T006900-0  RH  061%=      5-min Rain = 0
KPD2 180149Z 29001KT 07/00 A301 RMK A01 T00690000  RH  062%=      5-min Rain = 0
KPD2 180150Z 29001KT 07/00 A301 RMK A01 T00690001  RH  062%=      5-min Rain = 0
KPD2 180151Z 29001KT 07/00 A301 RMK A01 T00690001  RH  062%=      5-min Rain = 0
KPD2 180152Z 29001KT 07/00 A301 RMK A01 T00690000  RH  062%=      5-min Rain = 0
KPD2 180153Z 29001KT 07/00 A301 RMK A01 T00690000  RH  062%=      5-min Rain = 0
KPD2 180154Z 29001KT 07/00 A301 RMK A01 T00690000  RH  062%=      5-min Rain = 0
KPD2 180155Z 30002KT 07/00 A301 RMK A01 T00690001  RH  062%=      5-min Rain = 0
KPD2 180156Z 30002KT 07/00 A301 RMK A01 T00700001  RH  061%=      5-min Rain = 0
KPD2 180157Z 31002KT 07/00 A301 RMK A01 T00720001  RH  061%=      5-min Rain = 0
KPD2 180158Z 30002KT 07/00 A301 RMK A01 T00720001  RH  061%=      5-min Rain = 0
KPD2 180159Z 30002KT 07/00 A3011 RMK A01 T00720001  RH  060%=      5-min Rain = 0
KPD2 180200Z 30002KT 07/00 A3011 RMK A01 T00720000  RH  060%=      5-min Rain = 0
KPD2 180201Z 30002KT 07/M00 A3011 RMK A01 T00711001  RH  060%=      5-min Rain = 0
KPD2 180202Z 30002KT 07/M00 A3011 RMK A01 T00701002  RH  060%=      5-min Rain = 0
KPD2 180203Z 29001KT 07/M00 A3011 RMK A01 T00701001  RH  061%=      5-min Rain = 0
KPD2 180204Z 29001KT 07/M00 A3011 RMK A01 T00681001  RH  061%=      5-min Rain = 0
KPD2 180205Z 29001KT 07/M00 A3011 RMK A01 T00681001  RH  062%=      5-min Rain = 0
KPD2 180206Z 29001KT 07/M00 A3011 RMK A01 T00671001  RH  062%=      5-min Rain = 0
KPD2 180207Z 29001KT 07/M00 A3011 RMK A01 T00671001  RH  062%=      5-min Rain = 0
KPD2 180208Z 29001KT 07/M00 A3011 RMK A01 T00661001  RH  062%=      5-min Rain = 0
KPD2 180209Z 29001KT 07/M00 A3011 RMK A01 T00661001  RH  062%=      5-min Rain = 0
KPD2 180210Z 29001KT 07/M00 A3011 RMK A01 T00661001  RH  062%=      5-min Rain = 0
KPD2 180211Z 29002KT 07/M00 A3011 RMK A01 T00661001  RH  062%=      5-min Rain = 0
KPD2 180212Z 30002KT 07/M00 A3011 RMK A01 T00661001  RH  062%=      5-min Rain = 0
KPD2 180213Z 30002KT 07/M00 A3011 RMK A01 T00661001  RH  062%=      5-min Rain = 0
KPD2 180214Z 31002KT 07/M00 A3011 RMK A01 T00651002  RH  062%=      5-min Rain = 0
KPD2 180215Z 31001KT 06/M00 A3011 RMK A01 T00641002  RH  063%=      5-min Rain = 0
KPD2 180216Z 31001KT 06/M00 A3011 RMK A01 T00631002  RH  063%=      5-min Rain = 0
KPD2 180217Z 34002KT 06/M00 A3011 RMK A01 T00621002  RH  063%=      5-min Rain = 0
KPD2 180218Z 34002KT 06/M00 A3011 RMK A01 T00621002  RH  064%=      5-min Rain = 0
KPD2 180219Z 34002KT 06/M00 A3011 RMK A01 T00611002  RH  064%=      5-min Rain = 0
KPD2 180220Z 33002KT 06/M00 A3011 RMK A01 T00611001  RH  064%=      5-min Rain = 0
KPD2 180221Z 33002KT 06/M00 A301 RMK A01 T00611001  RH  064%=      5-min Rain = 0
KPD2 180222Z 33002KT 06/M00 A301 RMK A01 T00621001  RH  064%=      5-min Rain = 0
KPD2 180223Z 34002KT 06/00 A301 RMK A01 T006300-0  RH  064%=      5-min Rain = 0
KPD2 180224Z 33002KT 06/00 A301 RMK A01 T006400-0  RH  064%=      5-min Rain = 0
KPD2 180225Z 33002KT 07/00 A301 RMK A01 T006500-0  RH  063%=      5-min Rain = 0
KPD2 180226Z 32002KT 07/00 A301 RMK A01 T006500-0  RH  063%=      5-min Rain = 0
KPD2 180227Z 32002KT 07/00 A301 RMK A01 T006600-0  RH  063%=      5-min Rain = 0
KPD2 180228Z 32001KT 07/00 A301 RMK A01 T006600-0  RH  062%=      5-min Rain = 0
KPD2 180229Z 31001KT 07/M00 A301 RMK A01 T00671001  RH  062%=      5-min Rain = 0
KPD2 180230Z 30001KT 07/M00 A301 RMK A01 T00671001  RH  062%=      5-min Rain = 0
KPD2 180231Z 30001KT 07/M00 A301 RMK A01 T00671001  RH  062%=      5-min Rain = 0
KPD2 180232Z 30000KT 07/M00 A301 RMK A01 T00671001  RH  062%=      5-min Rain = 0
KPD2 180233Z 30000KT 07/M00 A301 RMK A01 T00671001  RH  062%=      5-min Rain = 0
KPD2 180234Z 00000KT 07/M00 A301 RMK A01 T00661002  RH  062%=      5-min Rain = 0
KPD2 180235Z 00000KT 07/M00 A301 RMK A01 T00651003  RH  062%=      5-min Rain = 0
KPD2 180236Z 30000KT 06/M01 A301 RMK A01 T00621005  RH  062%=      5-min Rain = 0
KPD2 180237Z 30001KT 06/M00 A301 RMK A01 T00611004  RH  063%=      5-min Rain = 0
KPD2 180238Z 31001KT 06/M01 A301 RMK A01 T00591005  RH  063%=      5-min Rain = 0
KPD2 180239Z 32002KT 06/M01 A301 RMK A01 T00581006  RH  063%=      5-min Rain = 0
KPD2 180240Z 35001KT 06/M01 A301 RMK A01 T00571006  RH  064%=      5-min Rain = 0
KPD2 180241Z 35001KT 06/M01 A301 RMK A01 T00561005  RH  065%=      5-min Rain = 0
KPD2 180242Z 35001KT 06/M01 A301 RMK A01 T00551005  RH  065%=      5-min Rain = 0
KPD2 180243Z 34001KT 05/M01 A301 RMK A01 T00541007  RH  065%=      5-min Rain = 0
KPD2 180244Z 34001KT 05/M01 A301 RMK A01 T00521011  RH  064%=      5-min Rain = 0
KPD2 180245Z 31002KT 05/M01 A301 RMK A01 T00501011  RH  065%=      5-min Rain = 0
KPD2 180246Z 31002KT 05/M01 A301 RMK A01 T00491009  RH  066%=      5-min Rain = 0
KPD2 180247Z 31001KT 05/M01 A3011 RMK A01 T00491006  RH  068%=      5-min Rain = 0
KPD2 180248Z 31001KT 05/M00 A301 RMK A01 T00501004  RH  068%=      5-min Rain = 0
KPD2 180249Z 31001KT 05/M00 A301 RMK A01 T00511004  RH  068%=      5-min Rain = 0
KPD2 180250Z 31001KT 05/M00 A301 RMK A01 T00511004  RH  067%=      5-min Rain = 0
KPD2 180251Z 29002KT 05/M01 A301 RMK A01 T00511005  RH  067%=      5-min Rain = 0
KPD2 180252Z 28003KT 05/M01 A3011 RMK A01 T00501005  RH  067%=      5-min Rain = 0
KPD2 180253Z 29003KT 05/M01 A3011 RMK A01 T00501005  RH  067%=      5-min Rain = 0
KPD2 180254Z 30004KT 05/M01 A3011 RMK A01 T00491006  RH  068%=      5-min Rain = 0
KPD2 180255Z 31004KT 05/M01 A3011 RMK A01 T00491005  RH  068%=      5-min Rain = 0
KPD2 180256Z 31004KT 05/M01 A3011 RMK A01 T00491006  RH  067%=      5-min Rain = 0
KPD2 180257Z 32004KT 05/M01 A3011 RMK A01 T00481007  RH  067%=      5-min Rain = 0
KPD2 180258Z 33003KT 05/M01 A3011 RMK A01 T00481006  RH  068%=      5-min Rain = 0
KPD2 180259Z 33003KT 05/M01 A3011 RMK A01 T00481006  RH  068%=      5-min Rain = 0
KPD2 180300Z 32002KT 05/M01 A3011 RMK A01 T00481005  RH  068%=      5-min Rain = 0
KPD2 180301Z 31002KT 05/M01 A3011 RMK A01 T00491005  RH  068%=      5-min Rain = 0
KPD2 180302Z 30003KT 05/M01 A3011 RMK A01 T00491005  RH  068%=      5-min Rain = 0
KPD2 180303Z 29003KT 05/M01 A3011 RMK A01 T00491005  RH  068%=      5-min Rain = 0
KPD2 180304Z 29003KT 05/M01 A3011 RMK A01 T00491006  RH  067%=      5-min Rain = 0
KPD2 180305Z 28003KT 05/M01 A3011 RMK A01 T00491006  RH  068%=      5-min Rain = 0
KPD2 180306Z 28003KT 05/M01 A3012 RMK A01 T00491006  RH  068%=      5-min Rain = 0
KPD2 180307Z 28002KT 05/M01 A3012 RMK A01 T00491006  RH  068%=      5-min Rain = 0
KPD2 180308Z 29003KT 05/M01 A3012 RMK A01 T00481007  RH  068%=      5-min Rain = 0
KPD2 180309Z 30002KT 05/M01 A3012 RMK A01 T00471006  RH  068%=      5-min Rain = 0
KPD2 180310Z 31002KT 05/M01 A3012 RMK A01 T00461006  RH  069%=      5-min Rain = 0
KPD2 180311Z 31003KT 05/M01 A3012 RMK A01 T00461006  RH  069%=      5-min Rain = 0
KPD2 180312Z 31003KT 05/M01 A3012 RMK A01 T00461006  RH  069%=      5-min Rain = 0
KPD2 180313Z 31003KT 05/M01 A3011 RMK A01 T00451006  RH  069%=      5-min Rain = 0
KPD2 180314Z 30002KT 05/M01 A3011 RMK A01 T00451006  RH  069%=      5-min Rain = 0
KPD2 180315Z 30003KT 05/M01 A3011 RMK A01 T00451006  RH  069%=      5-min Rain = 0
KPD2 180316Z 29003KT 05/M01 A3011 RMK A01 T00451006  RH  069%=      5-min Rain = 0
KPD2 180317Z 29004KT 05/M01 A3011 RMK A01 T00451007  RH  069%=      5-min Rain = 0
KPD2 180318Z 29003KT 04/M01 A3011 RMK A01 T00441007  RH  069%=      5-min Rain = 0
KPD2 180319Z 29003KT 04/M01 A3011 RMK A01 T00441006  RH  070%=      5-min Rain = 0
KPD2 180320Z 29003KT 04/M01 A3011 RMK A01 T00441005  RH  070%=      5-min Rain = 0
KPD2 180321Z 30002KT 04/M01 A3011 RMK A01 T00441005  RH  070%=      5-min Rain = 0
KPD2 180322Z 30002KT 05/M00 A3011 RMK A01 T00451004  RH  070%=      5-min Rain = 0
KPD2 180323Z 31002KT 05/M01 A3011 RMK A01 T00451005  RH  070%=      5-min Rain = 0
KPD2 180324Z 31001KT 05/M01 A3011 RMK A01 T00451005  RH  070%=      5-min Rain = 0
KPD2 180325Z 32001KT 05/M01 A3011 RMK A01 T00451005  RH  070%=      5-min Rain = 0
KPD2 180326Z 32001KT 05/M01 A3011 RMK A01 T00451005  RH  070%=      5-min Rain = 0
KPD2 180327Z 30002KT 05/M01 A3011 RMK A01 T00451005  RH  070%=      5-min Rain = 0
KPD2 180328Z 27002KT 05/M00 A3011 RMK A01 T00451004  RH  070%=      5-min Rain = 0
KPD2 180329Z 27001KT 05/M01 A3011 RMK A01 T00451005  RH  070%=      5-min Rain = 0
KPD2 180330Z 27002KT 05/M01 A3011 RMK A01 T00451005  RH  070%=      5-min Rain = 0
KPD2 180331Z 27003KT 04/M01 A3011 RMK A01 T00441006  RH  070%=      5-min Rain = 0
KPD2 180332Z 27003KT 04/M01 A3011 RMK A01 T00441007  RH  070%=      5-min Rain = 0
KPD2 180333Z 26002KT 04/M01 A3011 RMK A01 T00431007  RH  070%=      5-min Rain = 0
KPD2 180334Z 27000KT 04/M01 A3011 RMK A01 T00421007  RH  070%=      5-min Rain = 0
KPD2 180335Z 28000KT 04/M01 A3011 RMK A01 T00421006  RH  071%=      5-min Rain = 0
KPD2 180336Z 29001KT 04/M01 A3011 RMK A01 T00431005  RH  071%=      5-min Rain = 0
KPD2 180337Z 34002KT 04/M01 A3011 RMK A01 T00421005  RH  071%=      5-min Rain = 0
KPD2 180338Z 33003KT 04/M01 A3011 RMK A01 T00421006  RH  071%=      5-min Rain = 0
KPD2 180339Z 32004KT 04/M01 A3011 RMK A01 T00421005  RH  071%=      5-min Rain = 0
KPD2 180340Z 31004KT 04/M00 A3011 RMK A01 T00431004  RH  071%=      5-min Rain = 0
KPD2 180341Z 31003KT 04/M00 A301 RMK A01 T00431004  RH  071%=      5-min Rain = 0
KPD2 180342Z 31003KT 04/M01 A301 RMK A01 T00441005  RH  071%=      5-min Rain = 0
KPD2 180343Z 31002KT 04/M01 A301 RMK A01 T00441005  RH  070%=      5-min Rain = 0
KPD2 180344Z 31002KT 04/M01 A301 RMK A01 T00441005  RH  070%=      5-min Rain = 0
KPD2 180345Z 31002KT 04/M01 A301 RMK A01 T00441005  RH  070%=      5-min Rain = 0
KPD2 180346Z 31002KT 04/M01 A301 RMK A01 T00431006  RH  070%=      5-min Rain = 0
KPD2 180347Z 31002KT 04/M01 A301 RMK A01 T00421007  RH  070%=      5-min Rain = 0
KPD2 180348Z 30002KT 04/M01 A301 RMK A01 T00421007  RH  070%=      5-min Rain = 0
KPD2 180349Z 30002KT 04/M01 A301 RMK A01 T00411008  RH  070%=      5-min Rain = 0
KPD2 180350Z 28002KT 04/M01 A301 RMK A01 T00411008  RH  071%=      5-min Rain = 0
KPD2 180351Z 27002KT 04/M01 A301 RMK A01 T00401007  RH  071%=      5-min Rain = 0
KPD2 180352Z 26002KT 04/M01 A301 RMK A01 T00401008  RH  071%=      5-min Rain = 0
KPD2 180353Z 26001KT 04/M01 A301 RMK A01 T00391008  RH  071%=      5-min Rain = 0
KPD2 180354Z 00000KT 04/M01 A301 RMK A01 T00391007  RH  072%=      5-min Rain = 0
KPD2 180355Z 00000KT 04/M01 A301 RMK A01 T00391006  RH  072%=      5-min Rain = 0
KPD2 180356Z 34000KT 04/M01 A301 RMK A01 T00391006  RH  072%=      5-min Rain = 0
KPD2 180357Z 00000KT 04/M00 A301 RMK A01 T00401004  RH  073%=      5-min Rain = 0
KPD2 180358Z 34000KT 04/M00 A301 RMK A01 T00411004  RH  072%=      5-min Rain = 0
KPD2 180359Z 35001KT 04/M01 A301 RMK A01 T00421005  RH  072%=      5-min Rain = 0
KPD2 180400Z 33001KT 04/M01 A301 RMK A01 T00421005  RH  072%=      5-min Rain = 0
KPD2 180401Z 34002KT 04/M01 A301 RMK A01 T00421005  RH  072%=      5-min Rain = 0
KPD2 180402Z 33002KT 04/M01 A301 RMK A01 T00421005  RH  072%=      5-min Rain = 0
KPD2 180403Z 33002KT 04/M01 A301 RMK A01 T00421005  RH  072%=      5-min Rain = 0
KPD2 180404Z 32002KT 04/M00 A301 RMK A01 T00421004  RH  072%=      5-min Rain = 0
KPD2 180405Z 32002KT 04/M01 A301 RMK A01 T00421005  RH  071%=      5-min Rain = 0
KPD2 180406Z 32001KT 04/M01 A301 RMK A01 T00421005  RH  071%=      5-min Rain = 0
KPD2 180407Z 32001KT 04/M01 A301 RMK A01 T00421006  RH  071%=      5-min Rain = 0
KPD2 180408Z 33001KT 04/M01 A301 RMK A01 T00411006  RH  072%=      5-min Rain = 0
KPD2 180409Z 33001KT 04/M01 A301 RMK A01 T00411006  RH  072%=      5-min Rain = 0
KPD2 180410Z 33001KT 04/M01 A301 RMK A01 T00401006  RH  072%=      5-min Rain = 0
KPD2 180411Z 34001KT 04/M01 A3009 RMK A01 T00411005  RH  072%=      5-min Rain = 0
KPD2 180412Z 34001KT 04/M00 A3009 RMK A01 T00411004  RH  072%=      5-min Rain = 0
KPD2 180413Z 35001KT 04/M01 A3009 RMK A01 T00411005  RH  072%=      5-min Rain = 0
KPD2 180414Z 35002KT 04/M01 A3009 RMK A01 T00411005  RH  072%=      5-min Rain = 0
KPD2 180415Z 35002KT 04/M01 A3009 RMK A01 T00411005  RH  072%=      5-min Rain = 0
KPD2 180416Z 35002KT 04/M01 A3009 RMK A01 T00421005  RH  072%=      5-min Rain = 0
KPD2 180417Z 35002KT 04/M01 A3009 RMK A01 T00421005  RH  072%=      5-min Rain = 0
KPD2 180418Z 35002KT 04/M01 A3009 RMK A01 T00411005  RH  072%=      5-min Rain = 0
KPD2 180419Z 35002KT 04/M01 A3009 RMK A01 T00411005  RH  072%=      5-min Rain = 0
KPD2 180420Z 35001KT 04/M01 A3009 RMK A01 T00411005  RH  072%=      5-min Rain = 0
KPD2 180421Z 35001KT 04/M01 A3009 RMK A01 T00411005  RH  072%=      5-min Rain = 0
KPD2 180422Z 35001KT 04/M01 A3009 RMK A01 T00401006  RH  072%=      5-min Rain = 0
KPD2 180423Z 35000KT 04/M01 A3009 RMK A01 T00401006  RH  072%=      5-min Rain = 0
KPD2 180424Z 35001KT 04/M01 A3009 RMK A01 T00401007  RH  072%=      5-min Rain = 0
KPD2 180425Z 35001KT 04/M01 A3009 RMK A01 T00401006  RH  072%=      5-min Rain = 0
KPD2 180426Z 35001KT 04/M01 A3009 RMK A01 T00401006  RH  072%=      5-min Rain = 0
KPD2 180427Z 35001KT 04/M01 A3009 RMK A01 T00401006  RH  072%=      5-min Rain = 0
KPD2 180428Z 35001KT 04/M01 A3009 RMK A01 T00391006  RH  072%=      5-min Rain = 0
KPD2 180429Z 33002KT 04/M01 A3009 RMK A01 T00391006  RH  072%=      5-min Rain = 0
KPD2 180430Z 31001KT 04/M01 A3009 RMK A01 T00391006  RH  072%=      5-min Rain = 0
KPD2 180431Z 31000KT 04/M01 A3009 RMK A01 T00381008  RH  072%=      5-min Rain = 0
KPD2 180432Z 31000KT 04/M01 A3008 RMK A01 T00371009  RH  072%=      5-min Rain = 0
KPD2 180433Z 31000KT 04/M01 A3008 RMK A01 T00351009  RH  072%=      5-min Rain = 0
KPD2 180434Z 28002KT 04/M01 A3008 RMK A01 T00351009  RH  073%=      5-min Rain = 0
KPD2 180435Z 28002KT 03/M01 A3008 RMK A01 T00341009  RH  073%=      5-min Rain = 0
KPD2 180436Z 29002KT 03/M01 A3008 RMK A01 T00331010  RH  073%=      5-min Rain = 0
KPD2 180437Z 28001KT 03/M01 A3008 RMK A01 T00331009  RH  074%=      5-min Rain = 0
KPD2 180438Z 30001KT 03/M01 A3008 RMK A01 T00321010  RH  074%=      5-min Rain = 0
KPD2 180439Z 32001KT 03/M01 A3008 RMK A01 T00311009  RH  075%=      5-min Rain = 0
KPD2 180440Z 34002KT 03/M01 A3008 RMK A01 T00311009  RH  075%=      5-min Rain = 0
KPD2 180441Z 34002KT 03/M01 A3008 RMK A01 T00311009  RH  075%=      5-min Rain = 0
KPD2 180442Z 32002KT 03/M01 A3008 RMK A01 T00311009  RH  075%=      5-min Rain = 0
KPD2 180443Z 32002KT 03/M01 A3008 RMK A01 T00301009  RH  076%=      5-min Rain = 0
KPD2 180444Z 32002KT 03/M01 A3008 RMK A01 T00301009  RH  076%=      5-min Rain = 0
KPD2 180445Z 32002KT 03/M01 A3008 RMK A01 T00301009  RH  076%=      5-min Rain = 0
KPD2 180446Z 33002KT 03/M01 A3008 RMK A01 T00291010  RH  076%=      5-min Rain = 0
KPD2 180447Z 33002KT 03/M01 A3008 RMK A01 T00281010  RH  076%=      5-min Rain = 0
KPD2 180448Z 33002KT 03/M01 A3008 RMK A01 T00281009  RH  076%=      5-min Rain = 0
KPD2 180449Z 32002KT 03/M01 A3008 RMK A01 T00291008  RH  077%=      5-min Rain = 0
KPD2 180450Z 32002KT 03/M01 A3008 RMK A01 T00281008  RH  077%=      5-min Rain = 0
KPD2 180451Z 33002KT 03/M01 A3008 RMK A01 T00281008  RH  077%=      5-min Rain = 0
KPD2 180452Z 33001KT 03/M01 A3008 RMK A01 T00291008  RH  077%=      5-min Rain = 0
KPD2 180453Z 31001KT 03/M01 A3008 RMK A01 T00291008  RH  077%=      5-min Rain = 0
KPD2 180454Z 31001KT 03/M01 A3008 RMK A01 T00291008  RH  077%=      5-min Rain = 0
KPD2 180455Z 31001KT 03/M01 A3008 RMK A01 T00291008  RH  077%=      5-min Rain = 0
KPD2 180456Z 31001KT 03/M01 A3008 RMK A01 T00301007  RH  077%=      5-min Rain = 0
KPD2 180457Z 31000KT 03/M01 A3007 RMK A01 T00301007  RH  077%=      5-min Rain = 0
KPD2 180458Z 31000KT 03/M01 A3007 RMK A01 T00301007  RH  076%=      5-min Rain = 0
KPD2 180459Z 31000KT 03/M01 A3007 RMK A01 T00301007  RH  076%=      5-min Rain = 0
KPD2 180500Z 31001KT 03/M01 A3007 RMK A01 T00311007  RH  076%=      5-min Rain = 0
KPD2 180501Z 33002KT 03/M01 A3007 RMK A01 T00311007  RH  076%=      5-min Rain = 0
KPD2 180502Z 33002KT 03/M01 A3007 RMK A01 T00321007  RH  076%=      5-min Rain = 0
KPD2 180503Z 32002KT 03/M01 A3007 RMK A01 T00321007  RH  076%=      5-min Rain = 0
KPD2 180504Z 33002KT 03/M01 A3007 RMK A01 T00321007  RH  075%=      5-min Rain = 0
KPD2 180505Z 33002KT 03/M01 A3007 RMK A01 T00321007  RH  075%=      5-min Rain = 0
KPD2 180506Z 33002KT 03/M01 A3007 RMK A01 T00321007  RH  075%=      5-min Rain = 0
KPD2 180507Z 32002KT 03/M01 A3007 RMK A01 T00321007  RH  075%=      5-min Rain = 0
KPD2 180508Z 33002KT 03/M01 A3007 RMK A01 T00321007  RH  075%=      5-min Rain = 0
KPD2 180509Z 33001KT 03/M01 A3007 RMK A01 T00321007  RH  075%=      5-min Rain = 0
KPD2 180510Z 33002KT 03/M01 A3007 RMK A01 T00321009  RH  074%=      5-min Rain = 0
KPD2 180511Z 34002KT 03/M01 A3007 RMK A01 T00301012  RH  074%=      5-min Rain = 0
KPD2 180512Z 34001KT 03/M01 A3007 RMK A01 T00301012  RH  074%=      5-min Rain = 0
KPD2 180513Z 33002KT 03/M01 A3007 RMK A01 T00301011  RH  075%=      5-min Rain = 0
KPD2 180514Z 31002KT 03/M01 A3007 RMK A01 T00301009  RH  075%=      5-min Rain = 0
KPD2 180515Z 30001KT 03/M01 A3007 RMK A01 T00301010  RH  075%=      5-min Rain = 0
KPD2 180516Z 30001KT 03/M01 A3007 RMK A01 T00291011  RH  075%=      5-min Rain = 0
KPD2 180517Z 30001KT 03/M01 A3007 RMK A01 T00291011  RH  075%=      5-min Rain = 0
KPD2 180518Z 30001KT 03/M01 A3007 RMK A01 T00281011  RH  076%=      5-min Rain = 0
KPD2 180519Z 30001KT 03/M01 A3007 RMK A01 T00281010  RH  076%=      5-min Rain = 0
KPD2 180520Z 30000KT 03/M01 A3007 RMK A01 T00281009  RH  076%=      5-min Rain = 0
KPD2 180521Z 30000KT 03/M01 A3007 RMK A01 T00281009  RH  077%=      5-min Rain = 0
KPD2 180522Z 30000KT 03/M01 A3006 RMK A01 T00271009  RH  077%=      5-min Rain = 0
KPD2 180523Z 30001KT 03/M01 A3006 RMK A01 T00281010  RH  077%=      5-min Rain = 0
KPD2 180524Z 30001KT 03/M01 A3006 RMK A01 T00281009  RH  077%=      5-min Rain = 0
KPD2 180525Z 30001KT 03/M01 A3006 RMK A01 T00281009  RH  077%=      5-min Rain = 0
KPD2 180526Z 30002KT 03/M01 A3006 RMK A01 T00281008  RH  077%=      5-min Rain = 0
KPD2 180527Z 30002KT 03/M01 A3006 RMK A01 T00291008  RH  077%=      5-min Rain = 0
KPD2 180528Z 30002KT 03/M01 A3006 RMK A01 T00291007  RH  077%=      5-min Rain = 0
KPD2 180529Z 30001KT 03/M01 A3006 RMK A01 T00301007  RH  077%=      5-min Rain = 0
KPD2 180530Z 30001KT 03/M01 A3006 RMK A01 T00291008  RH  076%=      5-min Rain = 0
KPD2 180531Z 31000KT 03/M01 A3006 RMK A01 T00291009  RH  076%=      5-min Rain = 0
KPD2 180532Z 32001KT 03/M01 A3006 RMK A01 T00281009  RH  077%=      5-min Rain = 0
KPD2 180533Z 34002KT 03/M01 A3006 RMK A01 T00271009  RH  077%=      5-min Rain = 0
KPD2 180534Z 35002KT 03/M01 A3006 RMK A01 T00271009  RH  077%=      5-min Rain = 0
KPD2 180535Z 35002KT 03/M01 A3006 RMK A01 T00261009  RH  077%=      5-min Rain = 0
KPD2 180536Z 34002KT 03/M01 A3006 RMK A01 T00261009  RH  078%=      5-min Rain = 0
KPD2 180537Z 33001KT 03/M01 A3006 RMK A01 T00251010  RH  078%=      5-min Rain = 0
KPD2 180538Z 30001KT 03/M01 A3006 RMK A01 T00251010  RH  078%=      5-min Rain = 0
KPD2 180539Z 29001KT 03/M01 A3006 RMK A01 T00261008  RH  078%=      5-min Rain = 0
KPD2 180540Z 29001KT 03/M01 A3006 RMK A01 T00271007  RH  078%=      5-min Rain = 0
KPD2 180541Z 29000KT 03/M01 A3006 RMK A01 T00281007  RH  078%=      5-min Rain = 0
KPD2 180542Z 00000KT 03/M01 A3006 RMK A01 T00281007  RH  078%=      5-min Rain = 0
KPD2 180543Z 00000KT 03/M01 A3006 RMK A01 T00281006  RH  078%=      5-min Rain = 0
KPD2 180544Z 00000KT 03/M01 A3006 RMK A01 T00291005  RH  078%=      5-min Rain = 0
KPD2 180545Z 00000KT 03/M01 A3006 RMK A01 T00301006  RH  078%=      5-min Rain = 0
KPD2 180546Z 31000KT 03/M01 A3006 RMK A01 T00311005  RH  077%=      5-min Rain = 0
KPD2 180547Z 30000KT 03/M01 A3006 RMK A01 T00311006  RH  077%=      5-min Rain = 0
KPD2 180548Z 28000KT 03/M01 A3006 RMK A01 T00311007  RH  076%=      5-min Rain = 0
KPD2 180549Z 00000KT 03/M01 A3006 RMK A01 T00311007  RH  076%=      5-min Rain = 0
KPD2 180550Z 28000KT 03/M01 A3006 RMK A01 T00301008  RH  076%=      5-min Rain = 0
KPD2 180551Z 00000KT 03/M01 A3006 RMK A01 T00291009  RH  076%=      5-min Rain = 0
KPD2 180552Z 28001KT 03/M01 A3006 RMK A01 T00291009  RH  076%=      5-min Rain = 0
KPD2 180553Z 28001KT 03/M01 A3006 RMK A01 T00281009  RH  076%=      5-min Rain = 0
KPD2 180554Z 28000KT 03/M01 A3006 RMK A01 T00281010  RH  076%=      5-min Rain = 0
KPD2 180555Z 28000KT 03/M01 A3006 RMK A01 T00271010  RH  076%=      5-min Rain = 0
KPD2 180556Z 00000KT 03/M01 A3006 RMK A01 T00261011  RH  077%=      5-min Rain = 0
KPD2 180557Z 00000KT 03/M01 A3006 RMK A01 T00251012  RH  077%=      5-min Rain = 0
KPD2 180558Z 00000KT 02/M01 A3005 RMK A01 T00231012  RH  078%=      5-min Rain = 0
KPD2 180559Z 28000KT 02/M01 A3005 RMK A01 T00231011  RH  078%=      5-min Rain = 0

Page generated in 0.132 seconds.